Observation data for Boys Ranch on 01/18/2019      Previous  Date  Next       Current Mesonet Observations  Soil Data  Daily Summary Page  Observations in Plain Language
KBY1 180600Z 26003KT 05/M05 A2994 RMK A01 T00491047  RH  050%=      5-min Rain = 0
KBY1 180601Z 29003KT 05/M05 A2994 RMK A01 T00491048  RH  050%=      5-min Rain = 0
KBY1 180602Z 29005KT 05/M05 A2994 RMK A01 T00491048  RH  049%=      5-min Rain = 0
KBY1 180603Z 29004KT 05/M05 A2994 RMK A01 T00531048  RH  048%=      5-min Rain = 0
KBY1 180604Z 29004KT 06/M05 A2994 RMK A01 T00591047  RH  046%=      5-min Rain = 0
KBY1 180605Z 29004KT 06/M05 A2994 RMK A01 T00641047  RH  045%=      5-min Rain = 0
KBY1 180606Z 30005KT 07/M05 A2993 RMK A01 T00671047  RH  044%=      5-min Rain = 0
KBY1 180607Z 29006KT 07/M05 A2993 RMK A01 T00691048  RH  043%=      5-min Rain = 0
KBY1 180608Z 29005KT 07/M05 A2993 RMK A01 T00711048  RH  042%=      5-min Rain = 0
KBY1 180609Z 29006KT 07/M05 A2993 RMK A01 T00731048  RH  042%=      5-min Rain = 0
KBY1 180610Z 29005KT 08/M05 A2993 RMK A01 T00751048  RH  041%=      5-min Rain = 0
KBY1 180611Z 29006KT 08/M05 A2994 RMK A01 T00761049  RH  041%=      5-min Rain = 0
KBY1 180612Z 29005KT 08/M05 A2993 RMK A01 T00761049  RH  041%=      5-min Rain = 0
KBY1 180613Z 29006KT 08/M05 A2993 RMK A01 T00771049  RH  040%=      5-min Rain = 0
KBY1 180614Z 28006KT 08/M05 A2993 RMK A01 T00781050  RH  040%=      5-min Rain = 0
KBY1 180615Z 27005KT 08/M05 A2993 RMK A01 T00781050  RH  040%=      5-min Rain = 0
KBY1 180616Z 27005KT 08/M05 A2993 RMK A01 T00781050  RH  040%=      5-min Rain = 0
KBY1 180617Z 27004KT 08/M05 A2993 RMK A01 T00791051  RH  040%=      5-min Rain = 0
KBY1 180618Z 27003KT 08/M05 A2993 RMK A01 T00791051  RH  039%=      5-min Rain = 0
KBY1 180619Z 27003KT 08/M05 A2993 RMK A01 T00771051  RH  040%=      5-min Rain = 0
KBY1 180620Z 28003KT 08/M05 A2993 RMK A01 T00751051  RH  040%=      5-min Rain = 0
KBY1 180621Z 27004KT 07/M05 A2993 RMK A01 T00741051  RH  041%=      5-min Rain = 0
KBY1 180622Z 28004KT 07/M05 A2993 RMK A01 T00721051  RH  041%=      5-min Rain = 0
KBY1 180623Z 29004KT 07/M05 A2993 RMK A01 T00701051  RH  042%=      5-min Rain = 0
KBY1 180624Z 29004KT 07/M05 A2993 RMK A01 T00681051  RH  042%=      5-min Rain = 0
KBY1 180625Z 30005KT 07/M05 A2993 RMK A01 T00671051  RH  043%=      5-min Rain = 0
KBY1 180626Z 31006KT 07/M05 A2993 RMK A01 T00661050  RH  043%=      5-min Rain = 0
KBY1 180627Z 31008KT 06/M05 A2993 RMK A01 T00641049  RH  044%=      5-min Rain = 0
KBY1 180628Z 32007KT 06/M05 A2993 RMK A01 T00621048  RH  045%=      5-min Rain = 0
KBY1 180629Z 31007KT 06/M05 A2993 RMK A01 T00611046  RH  046%=      5-min Rain = 0
KBY1 180630Z 30006KT 06/M05 A2993 RMK A01 T00601046  RH  046%=      5-min Rain = 0
KBY1 180631Z 31005KT 06/M05 A2992 RMK A01 T00601046  RH  046%=      5-min Rain = 0
KBY1 180632Z 30005KT 06/M05 A2992 RMK A01 T00601046  RH  047%=      5-min Rain = 0
KBY1 180633Z 30005KT 06/M05 A2992 RMK A01 T00601048  RH  046%=      5-min Rain = 0
KBY1 180634Z 30005KT 06/M05 A2992 RMK A01 T00621048  RH  045%=      5-min Rain = 0
KBY1 180635Z 29004KT 07/M05 A2992 RMK A01 T00661048  RH  044%=      5-min Rain = 0
KBY1 180636Z 28003KT 07/M05 A2992 RMK A01 T00681049  RH  043%=      5-min Rain = 0
KBY1 180637Z 28002KT 07/M05 A2991 RMK A01 T00721049  RH  042%=      5-min Rain = 0
KBY1 180638Z 26001KT 07/M05 A2991 RMK A01 T00731049  RH  041%=      5-min Rain = 0
KBY1 180639Z 18000KT 07/M05 A2991 RMK A01 T00691049  RH  043%=      5-min Rain = 0
KBY1 180640Z 17000KT 06/M05 A2991 RMK A01 T00601050  RH  045%=      5-min Rain = 0
KBY1 180641Z 17000KT 05/M05 A2991 RMK A01 T00521050  RH  048%=      5-min Rain = 0
KBY1 180642Z 00000KT 05/M05 A2991 RMK A01 T00471050  RH  049%=      5-min Rain = 0
KBY1 180643Z 09000KT 05/M05 A2991 RMK A01 T00451050  RH  050%=      5-min Rain = 0
KBY1 180644Z 08001KT 04/M05 A2991 RMK A01 T00421050  RH  051%=      5-min Rain = 0
KBY1 180645Z 05001KT 04/M05 A2991 RMK A01 T00401051  RH  052%=      5-min Rain = 0
KBY1 180646Z 05001KT 04/M05 A2991 RMK A01 T00381051  RH  052%=      5-min Rain = 0
KBY1 180647Z 04002KT 04/M05 A2991 RMK A01 T00361050  RH  054%=      5-min Rain = 0
KBY1 180648Z 36002KT 04/M05 A2991 RMK A01 T00361047  RH  055%=      5-min Rain = 0
KBY1 180649Z 33002KT 04/M05 A2991 RMK A01 T00351048  RH  055%=      5-min Rain = 0
KBY1 180650Z 32002KT 04/M05 A2991 RMK A01 T00361047  RH  054%=      5-min Rain = 0
KBY1 180651Z 30002KT 04/M05 A2991 RMK A01 T00391047  RH  053%=      5-min Rain = 0
KBY1 180652Z 28002KT 04/M05 A2991 RMK A01 T00421047  RH  052%=      5-min Rain = 0
KBY1 180653Z 27002KT 04/M05 A2991 RMK A01 T00441048  RH  051%=      5-min Rain = 0
KBY1 180654Z 27003KT 05/M05 A2991 RMK A01 T00461050  RH  050%=      5-min Rain = 0
KBY1 180655Z 26004KT 05/M05 A2991 RMK A01 T00541048  RH  048%=      5-min Rain = 0
KBY1 180656Z 25005KT 06/M05 A2991 RMK A01 T00641045  RH  046%=      5-min Rain = 0
KBY1 180657Z 25005KT 07/M05 A2991 RMK A01 T00741045  RH  043%=      5-min Rain = 0
KBY1 180658Z 23005KT 08/M05 A299 RMK A01 T00771047  RH  041%=      5-min Rain = 0
KBY1 180659Z 23005KT 08/M05 A299 RMK A01 T00751051  RH  040%=      5-min Rain = 0
KBY1 180700Z 23005KT 07/M05 A299 RMK A01 T00721053  RH  041%=      5-min Rain = 0
KBY1 180701Z 22006KT 06/M06 A299 RMK A01 T00621055  RH  043%=      5-min Rain = 0
KBY1 180702Z 22005KT 05/M06 A299 RMK A01 T00501057  RH  046%=      5-min Rain = 0
KBY1 180703Z 21005KT 04/M06 A2989 RMK A01 T00391059  RH  049%=      5-min Rain = 0
KBY1 180704Z 21004KT 03/M06 A2989 RMK A01 T00291059  RH  052%=      5-min Rain = 0
KBY1 180705Z 21003KT 02/M06 A2989 RMK A01 T00201060  RH  055%=      5-min Rain = 0
KBY1 180706Z 19003KT 02/M06 A2989 RMK A01 T00161056  RH  058%=      5-min Rain = 0
KBY1 180707Z 18002KT 02/M05 A2989 RMK A01 T00181053  RH  059%=      5-min Rain = 0
KBY1 180708Z 22002KT 02/M05 A2989 RMK A01 T00201052  RH  059%=      5-min Rain = 0
KBY1 180709Z 21002KT 02/M05 A2989 RMK A01 T00211051  RH  059%=      5-min Rain = 0
KBY1 180710Z 22002KT 02/M05 A2989 RMK A01 T00231050  RH  059%=      5-min Rain = 0
KBY1 180711Z 21003KT 03/M05 A2989 RMK A01 T00261048  RH  058%=      5-min Rain = 0
KBY1 180712Z 18002KT 03/M05 A2989 RMK A01 T00291047  RH  057%=      5-min Rain = 0
KBY1 180713Z 19003KT 03/M05 A2989 RMK A01 T00311047  RH  056%=      5-min Rain = 0
KBY1 180714Z 20003KT 03/M05 A2988 RMK A01 T00331048  RH  056%=      5-min Rain = 0
KBY1 180715Z 20002KT 03/M05 A2989 RMK A01 T00341048  RH  055%=      5-min Rain = 0
KBY1 180716Z 22002KT 03/M05 A2989 RMK A01 T00341048  RH  055%=      5-min Rain = 0
KBY1 180717Z 22002KT 03/M05 A2989 RMK A01 T00341048  RH  055%=      5-min Rain = 0
KBY1 180718Z 24002KT 04/M05 A2988 RMK A01 T00381048  RH  053%=      5-min Rain = 0
KBY1 180719Z 24002KT 04/M05 A2988 RMK A01 T00431047  RH  052%=      5-min Rain = 0
KBY1 180720Z 27001KT 05/M05 A2988 RMK A01 T00471047  RH  051%=      5-min Rain = 0
KBY1 180721Z 29001KT 05/M05 A2988 RMK A01 T00501047  RH  049%=      5-min Rain = 0
KBY1 180722Z 28005KT 06/M05 A2988 RMK A01 T00551045  RH  048%=      5-min Rain = 0
KBY1 180723Z 28006KT 06/M04 A2988 RMK A01 T00631041  RH  047%=      5-min Rain = 0
KBY1 180724Z 29005KT 07/M04 A2988 RMK A01 T00711042  RH  044%=      5-min Rain = 0
KBY1 180725Z 28006KT 08/M04 A2988 RMK A01 T00761044  RH  042%=      5-min Rain = 0
KBY1 180726Z 28007KT 08/M05 A2988 RMK A01 T00771046  RH  041%=      5-min Rain = 0
KBY1 180727Z 27007KT 08/M05 A2988 RMK A01 T00781046  RH  041%=      5-min Rain = 0
KBY1 180728Z 27009KT 08/M05 A2988 RMK A01 T00771046  RH  041%=      5-min Rain = 0
KBY1 180729Z 27010KT 08/M05 A2987 RMK A01 T00781045  RH  041%=      5-min Rain = 0
KBY1 180730Z 27009KT 08/M05 A2987 RMK A01 T00801045  RH  041%=      5-min Rain = 0
KBY1 180731Z 26009KT 08/M05 A2987 RMK A01 T00821045  RH  040%=      5-min Rain = 0
KBY1 180732Z 26010KT 08/M05 A2987 RMK A01 T00841045  RH  040%=      5-min Rain = 0
KBY1 180733Z 26010KT 09/M05 A2987 RMK A01 T00851045  RH  039%=      5-min Rain = 0
KBY1 180734Z 26009KT 09/M05 A2987 RMK A01 T00851046  RH  039%=      5-min Rain = 0
KBY1 180735Z 26008KT 09/M05 A2987 RMK A01 T00861045  RH  039%=      5-min Rain = 0
KBY1 180736Z 27008KT 09/M05 A2987 RMK A01 T00861045  RH  039%=      5-min Rain = 0
KBY1 180737Z 27008KT 09/M05 A2987 RMK A01 T00871045  RH  039%=      5-min Rain = 0
KBY1 180738Z 27007KT 09/M05 A2986 RMK A01 T00861045  RH  039%=      5-min Rain = 0
KBY1 180739Z 28006KT 09/M05 A2986 RMK A01 T00861046  RH  039%=      5-min Rain = 0
KBY1 180740Z 27006KT 08/M05 A2986 RMK A01 T00841046  RH  039%=      5-min Rain = 0
KBY1 180741Z 27005KT 08/M05 A2986 RMK A01 T00831046  RH  040%=      5-min Rain = 0
KBY1 180742Z 27007KT 08/M05 A2986 RMK A01 T00811046  RH  040%=      5-min Rain = 0
KBY1 180743Z 27006KT 08/M05 A2986 RMK A01 T00811046  RH  040%=      5-min Rain = 0
KBY1 180744Z 27007KT 08/M05 A2986 RMK A01 T00811045  RH  040%=      5-min Rain = 0
KBY1 180745Z 26007KT 08/M05 A2986 RMK A01 T00821045  RH  040%=      5-min Rain = 0
KBY1 180746Z 27006KT 08/M05 A2986 RMK A01 T00821045  RH  040%=      5-min Rain = 0
KBY1 180747Z 26006KT 08/M04 A2986 RMK A01 T00821044  RH  040%=      5-min Rain = 0
KBY1 180748Z 26006KT 08/M04 A2986 RMK A01 T00821044  RH  041%=      5-min Rain = 0
KBY1 180749Z 26006KT 08/M04 A2986 RMK A01 T00821044  RH  041%=      5-min Rain = 0
KBY1 180750Z 25006KT 08/M04 A2985 RMK A01 T00811043  RH  041%=      5-min Rain = 0
KBY1 180751Z 24006KT 08/M04 A2985 RMK A01 T00811043  RH  041%=      5-min Rain = 0
KBY1 180752Z 24005KT 08/M04 A2985 RMK A01 T00811043  RH  041%=      5-min Rain = 0
KBY1 180753Z 23003KT 08/M04 A2985 RMK A01 T00811042  RH  041%=      5-min Rain = 0
KBY1 180754Z 22005KT 08/M04 A2985 RMK A01 T00811042  RH  042%=      5-min Rain = 0
KBY1 180755Z 23005KT 08/M04 A2985 RMK A01 T00811042  RH  042%=      5-min Rain = 0
KBY1 180756Z 22006KT 08/M04 A2985 RMK A01 T00841041  RH  041%=      5-min Rain = 0
KBY1 180757Z 22006KT 09/M04 A2985 RMK A01 T00881040  RH  040%=      5-min Rain = 0
KBY1 180758Z 23007KT 09/M04 A2985 RMK A01 T00901041  RH  039%=      5-min Rain = 0
KBY1 180759Z 23007KT 09/M04 A2985 RMK A01 T00921041  RH  039%=      5-min Rain = 0
KBY1 180800Z 23004KT 09/M04 A2985 RMK A01 T00941041  RH  038%=      5-min Rain = 0
KBY1 180801Z 24007G12KT 09/M04 A2984 RMK A01 T00941041  RH  038%=      5-min Rain = 0
KBY1 180802Z 24007G12KT 10/M04 A2984 RMK A01 T00951041  RH  038%=      5-min Rain = 0
KBY1 180803Z 24009KT 10/M04 A2984 RMK A01 T00961041  RH  038%=      5-min Rain = 0
KBY1 180804Z 25009KT 10/M04 A2984 RMK A01 T00971041  RH  037%=      5-min Rain = 0
KBY1 180805Z 24008KT 10/M04 A2984 RMK A01 T00971042  RH  037%=      5-min Rain = 0
KBY1 180806Z 24010KT 10/M04 A2984 RMK A01 T00971042  RH  037%=      5-min Rain = 0
KBY1 180807Z 25011G17KT 10/M04 A2984 RMK A01 T00971042  RH  037%=      5-min Rain = 0
KBY1 180808Z 24011KT 10/M04 A2984 RMK A01 T00981042  RH  037%=      5-min Rain = 0
KBY1 180809Z 25008KT 10/M04 A2984 RMK A01 T00991042  RH  037%=      5-min Rain = 0
KBY1 180810Z 24009KT 10/M04 A2984 RMK A01 T00981042  RH  037%=      5-min Rain = 0
KBY1 180811Z 25009KT 10/M04 A2984 RMK A01 T00961042  RH  037%=      5-min Rain = 0
KBY1 180812Z 25007KT 10/M04 A2984 RMK A01 T00961042  RH  038%=      5-min Rain = 0
KBY1 180813Z 25010KT 10/M04 A2984 RMK A01 T00951041  RH  038%=      5-min Rain = 0
KBY1 180814Z 24010KT 10/M04 A2984 RMK A01 T00951042  RH  038%=      5-min Rain = 0
KBY1 180815Z 25007KT 10/M04 A2984 RMK A01 T00951042  RH  038%=      5-min Rain = 0
KBY1 180816Z 25010KT 10/M04 A2983 RMK A01 T00951042  RH  038%=      5-min Rain = 0
KBY1 180817Z 24010KT 10/M04 A2983 RMK A01 T00951041  RH  038%=      5-min Rain = 0
KBY1 180818Z 24010KT 10/M04 A2983 RMK A01 T00961042  RH  038%=      5-min Rain = 0
KBY1 180819Z 24009KT 10/M04 A2983 RMK A01 T00961041  RH  038%=      5-min Rain = 0
KBY1 180820Z 24010KT 10/M04 A2983 RMK A01 T00961041  RH  038%=      5-min Rain = 0
KBY1 180821Z 24008KT 10/M04 A2983 RMK A01 T00961041  RH  038%=      5-min Rain = 0
KBY1 180822Z 24010G16KT 10/M04 A2982 RMK A01 T00951041  RH  038%=      5-min Rain = 0
KBY1 180823Z 23014KT 10/M04 A2982 RMK A01 T00971040  RH  038%=      5-min Rain = 0
KBY1 180824Z 24011KT 10/M04 A2982 RMK A01 T01011040  RH  037%=      5-min Rain = 0
KBY1 180825Z 23010KT 10/M04 A2982 RMK A01 T01011040  RH  037%=      5-min Rain = 0
KBY1 180826Z 24012KT 10/M04 A2982 RMK A01 T01001040  RH  037%=      5-min Rain = 0
KBY1 180827Z 23013KT 10/M04 A2982 RMK A01 T01011040  RH  037%=      5-min Rain = 0
KBY1 180828Z 23012KT 10/M04 A2982 RMK A01 T01021040  RH  037%=      5-min Rain = 0
KBY1 180829Z 24011KT 10/M04 A2982 RMK A01 T01021040  RH  037%=      5-min Rain = 0
KBY1 180830Z 23011G16KT 10/M04 A2982 RMK A01 T01021039  RH  037%=      5-min Rain = 0
KBY1 180831Z 24011KT 10/M04 A2982 RMK A01 T01011039  RH  037%=      5-min Rain = 0
KBY1 180832Z 23013G18KT 10/M04 A2982 RMK A01 T01011039  RH  037%=      5-min Rain = 0
KBY1 180833Z 24013KT 10/M04 A2982 RMK A01 T01021039  RH  037%=      5-min Rain = 0
KBY1 180834Z 23011KT 10/M04 A2982 RMK A01 T01021040  RH  037%=      5-min Rain = 0
KBY1 180835Z 24013KT 10/M04 A2982 RMK A01 T01021039  RH  037%=      5-min Rain = 0
KBY1 180836Z 24013KT 10/M04 A2982 RMK A01 T01021039  RH  037%=      5-min Rain = 0
KBY1 180837Z 24012KT 10/M04 A2982 RMK A01 T01011039  RH  037%=      5-min Rain = 0
KBY1 180838Z 24012KT 10/M04 A2982 RMK A01 T01001039  RH  037%=      5-min Rain = 0
KBY1 180839Z 24010G16KT 10/M04 A2982 RMK A01 T01001038  RH  038%=      5-min Rain = 0
KBY1 180840Z 24009KT 10/M04 A2982 RMK A01 T01001038  RH  038%=      5-min Rain = 0
KBY1 180841Z 25010KT 10/M04 A2982 RMK A01 T00981038  RH  038%=      5-min Rain = 0
KBY1 180842Z 25009KT 10/M04 A2982 RMK A01 T00981037  RH  038%=      5-min Rain = 0
KBY1 180843Z 25013KT 10/M04 A2982 RMK A01 T00991037  RH  038%=      5-min Rain = 0
KBY1 180844Z 25010KT 10/M04 A2982 RMK A01 T01011037  RH  038%=      5-min Rain = 0
KBY1 180845Z 26008KT 10/M04 A2983 RMK A01 T01021037  RH  038%=      5-min Rain = 0
KBY1 180846Z 26009KT 10/M04 A2983 RMK A01 T01011037  RH  038%=      5-min Rain = 0
KBY1 180847Z 26010KT 10/M04 A2983 RMK A01 T01011037  RH  038%=      5-min Rain = 0
KBY1 180848Z 27007KT 10/M04 A2983 RMK A01 T01011037  RH  038%=      5-min Rain = 0
KBY1 180849Z 26008KT 10/M04 A2983 RMK A01 T01011037  RH  038%=      5-min Rain = 0
KBY1 180850Z 27009KT 10/M04 A2983 RMK A01 T01021036  RH  038%=      5-min Rain = 0
KBY1 180851Z 27007KT 10/M04 A2983 RMK A01 T01031036  RH  037%=      5-min Rain = 0
KBY1 180852Z 27007KT 10/M04 A2983 RMK A01 T01041036  RH  037%=      5-min Rain = 0
KBY1 180853Z 28005KT 10/M04 A2983 RMK A01 T01041036  RH  037%=      5-min Rain = 0
KBY1 180854Z 30004KT 10/M04 A2983 RMK A01 T01041035  RH  037%=      5-min Rain = 0
KBY1 180855Z 32004KT 10/M04 A2983 RMK A01 T01001036  RH  038%=      5-min Rain = 0
KBY1 180856Z 31004KT 09/M04 A2983 RMK A01 T00941037  RH  039%=      5-min Rain = 0
KBY1 180857Z 31005KT 09/M04 A2983 RMK A01 T00901037  RH  041%=      5-min Rain = 0
KBY1 180858Z 30005KT 09/M04 A2983 RMK A01 T00871036  RH  041%=      5-min Rain = 0
KBY1 180859Z 30004KT 09/M04 A2983 RMK A01 T00861036  RH  042%=      5-min Rain = 0
KBY1 180900Z 31004KT 09/M04 A2982 RMK A01 T00851036  RH  042%=      5-min Rain = 0
KBY1 180901Z 31005KT 08/M04 A2982 RMK A01 T00841035  RH  043%=      5-min Rain = 0
KBY1 180902Z 31005KT 08/M04 A2982 RMK A01 T00841035  RH  043%=      5-min Rain = 0
KBY1 180903Z 31007KT 09/M03 A2982 RMK A01 T00851034  RH  043%=      5-min Rain = 0
KBY1 180904Z 31009KT 09/M03 A2982 RMK A01 T00861034  RH  043%=      5-min Rain = 0
KBY1 180905Z 30008KT 09/M03 A2983 RMK A01 T00871033  RH  043%=      5-min Rain = 0
KBY1 180906Z 30009KT 09/M03 A2983 RMK A01 T00891033  RH  042%=      5-min Rain = 0
KBY1 180907Z 30010KT 09/M03 A2983 RMK A01 T00901033  RH  042%=      5-min Rain = 0
KBY1 180908Z 31010KT 09/M03 A2983 RMK A01 T00911033  RH  042%=      5-min Rain = 0
KBY1 180909Z 31010KT 09/M03 A2983 RMK A01 T00921033  RH  041%=      5-min Rain = 0
KBY1 180910Z 30008KT 09/M03 A2983 RMK A01 T00931033  RH  041%=      5-min Rain = 0
KBY1 180911Z 31010KT 09/M03 A2983 RMK A01 T00941033  RH  041%=      5-min Rain = 0
KBY1 180912Z 30009KT 09/M03 A2983 RMK A01 T00931033  RH  041%=      5-min Rain = 0
KBY1 180913Z 30009KT 09/M03 A2983 RMK A01 T00921034  RH  041%=      5-min Rain = 0
KBY1 180914Z 30008KT 09/M03 A2983 RMK A01 T00921033  RH  041%=      5-min Rain = 0
KBY1 180915Z 29009KT 09/M03 A2983 RMK A01 T00931033  RH  041%=      5-min Rain = 0
KBY1 180916Z 29008KT 09/M03 A2983 RMK A01 T00921033  RH  041%=      5-min Rain = 0
KBY1 180917Z 28007G12KT 09/M03 A2982 RMK A01 T00931033  RH  041%=      5-min Rain = 0
KBY1 180918Z 28007KT 09/M03 A2982 RMK A01 T00941033  RH  041%=      5-min Rain = 0
KBY1 180919Z 28007KT 09/M03 A2982 RMK A01 T00941033  RH  041%=      5-min Rain = 0
KBY1 180920Z 29006KT 09/M03 A2982 RMK A01 T00941033  RH  041%=      5-min Rain = 0
KBY1 180921Z 30006KT 09/M03 A2982 RMK A01 T00931034  RH  041%=      5-min Rain = 0
KBY1 180922Z 30006KT 09/M04 A2982 RMK A01 T00911035  RH  041%=      5-min Rain = 0
KBY1 180923Z 30006KT 09/M04 A2982 RMK A01 T00871036  RH  042%=      5-min Rain = 0
KBY1 180924Z 31006KT 08/M04 A2982 RMK A01 T00831036  RH  043%=      5-min Rain = 0
KBY1 180925Z 31006KT 08/M04 A2982 RMK A01 T00801036  RH  044%=      5-min Rain = 0
KBY1 180926Z 32007KT 08/M04 A2982 RMK A01 T00771035  RH  045%=      5-min Rain = 0
KBY1 180927Z 32007KT 07/M03 A2982 RMK A01 T00741034  RH  046%=      5-min Rain = 0
KBY1 180928Z 32008KT 07/M03 A2982 RMK A01 T00721033  RH  047%=      5-min Rain = 0
KBY1 180929Z 31008KT 07/M03 A2982 RMK A01 T00711033  RH  048%=      5-min Rain = 0
KBY1 180930Z 31008KT 07/M03 A2982 RMK A01 T00711032  RH  048%=      5-min Rain = 0
KBY1 180931Z 31007KT 07/M03 A2982 RMK A01 T00711032  RH  048%=      5-min Rain = 0
KBY1 180932Z 30006KT 07/M03 A2982 RMK A01 T00711032  RH  048%=      5-min Rain = 0
KBY1 180933Z 31006KT 07/M03 A2982 RMK A01 T00711032  RH  048%=      5-min Rain = 0
KBY1 180934Z 30006KT 07/M03 A2982 RMK A01 T00721032  RH  048%=      5-min Rain = 0
KBY1 180935Z 30007KT 07/M03 A2982 RMK A01 T00721032  RH  048%=      5-min Rain = 0
KBY1 180936Z 30007KT 07/M03 A2982 RMK A01 T00721031  RH  048%=      5-min Rain = 0
KBY1 180937Z 29007KT 07/M03 A2981 RMK A01 T00741030  RH  047%=      5-min Rain = 0
KBY1 180938Z 29008KT 08/M03 A2981 RMK A01 T00791029  RH  047%=      5-min Rain = 0
KBY1 180939Z 29008KT 08/M03 A2981 RMK A01 T00841027  RH  045%=      5-min Rain = 0
KBY1 180940Z 27007KT 09/M03 A2981 RMK A01 T00881027  RH  044%=      5-min Rain = 0
KBY1 180941Z 27009KT 09/M03 A2981 RMK A01 T00921027  RH  043%=      5-min Rain = 0
KBY1 180942Z 27010KT 10/M03 A2981 RMK A01 T00951026  RH  042%=      5-min Rain = 0
KBY1 180943Z 26009KT 10/M03 A298 RMK A01 T00971026  RH  042%=      5-min Rain = 0
KBY1 180944Z 27009KT 10/M03 A298 RMK A01 T00981027  RH  041%=      5-min Rain = 0
KBY1 180945Z 27009KT 10/M03 A2981 RMK A01 T00981027  RH  041%=      5-min Rain = 0
KBY1 180946Z 26009KT 10/M03 A2981 RMK A01 T00981027  RH  041%=      5-min Rain = 0
KBY1 180947Z 27008KT 10/M03 A298 RMK A01 T00971027  RH  042%=      5-min Rain = 0
KBY1 180948Z 27009KT 10/M03 A298 RMK A01 T00971027  RH  042%=      5-min Rain = 0
KBY1 180949Z 27009KT 10/M03 A298 RMK A01 T00971027  RH  042%=      5-min Rain = 0
KBY1 180950Z 27009KT 10/M03 A298 RMK A01 T00981027  RH  041%=      5-min Rain = 0
KBY1 180951Z 28009KT 10/M03 A298 RMK A01 T00981027  RH  041%=      5-min Rain = 0
KBY1 180952Z 28008KT 10/M03 A298 RMK A01 T00981027  RH  041%=      5-min Rain = 0
KBY1 180953Z 27006KT 10/M03 A298 RMK A01 T00991027  RH  041%=      5-min Rain = 0
KBY1 180954Z 28005KT 10/M03 A298 RMK A01 T00981027  RH  041%=      5-min Rain = 0
KBY1 180955Z 27007KT 10/M03 A298 RMK A01 T00981027  RH  041%=      5-min Rain = 0
KBY1 180956Z 27007KT 10/M03 A298 RMK A01 T00991027  RH  041%=      5-min Rain = 0
KBY1 180957Z 28006KT 10/M03 A298 RMK A01 T01001027  RH  041%=      5-min Rain = 0
KBY1 180958Z 28006KT 10/M03 A298 RMK A01 T01001027  RH  041%=      5-min Rain = 0
KBY1 180959Z 29006KT 10/M03 A298 RMK A01 T01001027  RH  041%=      5-min Rain = 0
KBY1 181000Z 28005KT 10/M03 A298 RMK A01 T00991027  RH  041%=      5-min Rain = 0
KBY1 181001Z 28005KT 10/M03 A298 RMK A01 T00981027  RH  041%=      5-min Rain = 0
KBY1 181002Z 28005KT 10/M03 A298 RMK A01 T00981027  RH  042%=      5-min Rain = 0
KBY1 181003Z 29004KT 10/M03 A298 RMK A01 T00971027  RH  042%=      5-min Rain = 0
KBY1 181004Z 27006KT 10/M03 A298 RMK A01 T00961026  RH  042%=      5-min Rain = 0
KBY1 181005Z 27006KT 10/M03 A2979 RMK A01 T00961026  RH  042%=      5-min Rain = 0
KBY1 181006Z 27005KT 10/M03 A2979 RMK A01 T00961026  RH  042%=      5-min Rain = 0
KBY1 181007Z 27006KT 10/M03 A2979 RMK A01 T00961026  RH  042%=      5-min Rain = 0
KBY1 181008Z 26006KT 10/M03 A2979 RMK A01 T00971025  RH  042%=      5-min Rain = 0
KBY1 181009Z 26006KT 10/M03 A2979 RMK A01 T00971025  RH  042%=      5-min Rain = 0
KBY1 181010Z 26007KT 10/M02 A2979 RMK A01 T01001024  RH  042%=      5-min Rain = 0
KBY1 181011Z 26006KT 10/M02 A2979 RMK A01 T01021024  RH  041%=      5-min Rain = 0
KBY1 181012Z 25007KT 10/M03 A2979 RMK A01 T01031025  RH  041%=      5-min Rain = 0
KBY1 181013Z 25007KT 11/M02 A2979 RMK A01 T01051024  RH  040%=      5-min Rain = 0
KBY1 181014Z 25006KT 11/M02 A2979 RMK A01 T01051024  RH  040%=      5-min Rain = 0
KBY1 181015Z 25006KT 11/M03 A2979 RMK A01 T01061025  RH  040%=      5-min Rain = 0
KBY1 181016Z 25007KT 11/M02 A2979 RMK A01 T01071024  RH  040%=      5-min Rain = 0
KBY1 181017Z 24008KT 11/M03 A2979 RMK A01 T01071025  RH  040%=      5-min Rain = 0
KBY1 181018Z 25007KT 11/M03 A2978 RMK A01 T01081025  RH  039%=      5-min Rain = 0
KBY1 181019Z 25007G12KT 11/M03 A2978 RMK A01 T01081025  RH  039%=      5-min Rain = 0
KBY1 181020Z 24009KT 11/M03 A2978 RMK A01 T01081025  RH  039%=      5-min Rain = 0
KBY1 181021Z 25010KT 11/M03 A2978 RMK A01 T01091025  RH  039%=      5-min Rain = 0
KBY1 181022Z 25008KT 11/M03 A2978 RMK A01 T01101025  RH  039%=      5-min Rain = 0
KBY1 181023Z 25009G14KT 11/M03 A2978 RMK A01 T01101025  RH  039%=      5-min Rain = 0
KBY1 181024Z 25009KT 11/M03 A2978 RMK A01 T01101025  RH  039%=      5-min Rain = 0
KBY1 181025Z 25008KT 11/M03 A2978 RMK A01 T01101025  RH  039%=      5-min Rain = 0
KBY1 181026Z 25009KT 11/M03 A2978 RMK A01 T01101025  RH  039%=      5-min Rain = 0
KBY1 181027Z 24008KT 11/M03 A2977 RMK A01 T01101026  RH  039%=      5-min Rain = 0
KBY1 181028Z 24008KT 11/M03 A2977 RMK A01 T01091026  RH  039%=      5-min Rain = 0
KBY1 181029Z 25008KT 11/M03 A2977 RMK A01 T01101025  RH  039%=      5-min Rain = 0
KBY1 181030Z 24012KT 11/M03 A2977 RMK A01 T01091026  RH  039%=      5-min Rain = 0
KBY1 181031Z 24010KT 11/M03 A2977 RMK A01 T01101026  RH  039%=      5-min Rain = 0
KBY1 181032Z 25010KT 11/M03 A2977 RMK A01 T01101026  RH  038%=      5-min Rain = 0
KBY1 181033Z 25010KT 11/M03 A2977 RMK A01 T01101026  RH  039%=      5-min Rain = 0
KBY1 181034Z 25010KT 11/M03 A2977 RMK A01 T01101026  RH  039%=      5-min Rain = 0
KBY1 181035Z 24009KT 11/M03 A2977 RMK A01 T01101026  RH  039%=      5-min Rain = 0
KBY1 181036Z 24009KT 11/M03 A2977 RMK A01 T01101027  RH  038%=      5-min Rain = 0
KBY1 181037Z 25010KT 11/M03 A2977 RMK A01 T01101027  RH  038%=      5-min Rain = 0
KBY1 181038Z 24010KT 11/M03 A2976 RMK A01 T01121027  RH  038%=      5-min Rain = 0
KBY1 181039Z 25010KT 11/M03 A2976 RMK A01 T01121027  RH  038%=      5-min Rain = 0
KBY1 181040Z 24008G13KT 11/M03 A2976 RMK A01 T01131027  RH  038%=      5-min Rain = 0
KBY1 181041Z 25008KT 11/M03 A2976 RMK A01 T01121027  RH  038%=      5-min Rain = 0
KBY1 181042Z 24006KT 11/M03 A2976 RMK A01 T01121027  RH  038%=      5-min Rain = 0
KBY1 181043Z 24009KT 11/M03 A2976 RMK A01 T01111027  RH  038%=      5-min Rain = 0
KBY1 181044Z 24010KT 11/M03 A2976 RMK A01 T01111028  RH  038%=      5-min Rain = 0
KBY1 181045Z 25010KT 11/M03 A2976 RMK A01 T01131028  RH  037%=      5-min Rain = 0
KBY1 181046Z 25010KT 12/M03 A2976 RMK A01 T01151028  RH  037%=      5-min Rain = 0
KBY1 181047Z 24011KT 12/M03 A2976 RMK A01 T01161028  RH  036%=      5-min Rain = 0
KBY1 181048Z 24013G18KT 12/M03 A2976 RMK A01 T01171028  RH  036%=      5-min Rain = 0
KBY1 181049Z 24016G26KT 12/M03 A2976 RMK A01 T01201028  RH  036%=      5-min Rain = 0
KBY1 181050Z 24020G25KT 12/M03 A2976 RMK A01 T01231027  RH  035%=      5-min Rain = 0
KBY1 181051Z 24017KT 13/M03 A2976 RMK A01 T01271027  RH  034%=      5-min Rain = 0
KBY1 181052Z 24012G17KT 13/M03 A2975 RMK A01 T01281028  RH  034%=      5-min Rain = 0
KBY1 181053Z 24015KT 13/M03 A2975 RMK A01 T01291027  RH  034%=      5-min Rain = 0
KBY1 181054Z 24018G24KT 13/M03 A2975 RMK A01 T01291028  RH  034%=      5-min Rain = 0
KBY1 181055Z 24016KT 13/M03 A2975 RMK A01 T01301028  RH  033%=      5-min Rain = 0
KBY1 181056Z 24014KT 13/M03 A2975 RMK A01 T01311028  RH  033%=      5-min Rain = 0
KBY1 181057Z 24017KT 13/M03 A2975 RMK A01 T01301028  RH  033%=      5-min Rain = 0
KBY1 181058Z 24015KT 13/M03 A2975 RMK A01 T01311028  RH  033%=      5-min Rain = 0
KBY1 181059Z 24011G16KT 13/M03 A2975 RMK A01 T01311028  RH  033%=      5-min Rain = 0
KBY1 181100Z 24014KT 13/M03 A2975 RMK A01 T01301028  RH  033%=      5-min Rain = 0
KBY1 181101Z 24013KT 13/M03 A2975 RMK A01 T01291028  RH  033%=      5-min Rain = 0
KBY1 181102Z 25013KT 13/M03 A2975 RMK A01 T01291028  RH  033%=      5-min Rain = 0
KBY1 181103Z 25014KT 13/M03 A2975 RMK A01 T01301028  RH  033%=      5-min Rain = 0
KBY1 181104Z 24013G18KT 13/M03 A2975 RMK A01 T01301028  RH  033%=      5-min Rain = 0
KBY1 181105Z 25015KT 13/M03 A2975 RMK A01 T01301028  RH  033%=      5-min Rain = 0
KBY1 181106Z 25012G18KT 13/M03 A2975 RMK A01 T01311028  RH  033%=      5-min Rain = 0
KBY1 181107Z 25013KT 13/M03 A2975 RMK A01 T01301028  RH  033%=      5-min Rain = 0
KBY1 181108Z 25015G20KT 13/M03 A2975 RMK A01 T01301028  RH  033%=      5-min Rain = 0
KBY1 181109Z 25014KT 13/M03 A2975 RMK A01 T01301028  RH  033%=      5-min Rain = 0
KBY1 181110Z 24013G19KT 13/M03 A2975 RMK A01 T01311028  RH  033%=      5-min Rain = 0
KBY1 181111Z 25011KT 13/M03 A2975 RMK A01 T01311028  RH  033%=      5-min Rain = 0
KBY1 181112Z 25010KT 13/M03 A2975 RMK A01 T01301028  RH  033%=      5-min Rain = 0
KBY1 181113Z 25011KT 13/M03 A2975 RMK A01 T01301028  RH  033%=      5-min Rain = 0
KBY1 181114Z 26011KT 13/M03 A2975 RMK A01 T01301028  RH  033%=      5-min Rain = 0
KBY1 181115Z 26012KT 13/M03 A2975 RMK A01 T01301028  RH  033%=      5-min Rain = 0
KBY1 181116Z 26012KT 13/M03 A2975 RMK A01 T01301028  RH  033%=      5-min Rain = 0
KBY1 181117Z 26013KT 13/M03 A2974 RMK A01 T01301027  RH  033%=      5-min Rain = 0
KBY1 181118Z 26011KT 13/M03 A2974 RMK A01 T01311027  RH  033%=      5-min Rain = 0
KBY1 181119Z 25010G15KT 13/M03 A2974 RMK A01 T01311027  RH  033%=      5-min Rain = 0
KBY1 181120Z 25013KT 13/M03 A2974 RMK A01 T01311026  RH  034%=      5-min Rain = 0
KBY1 181121Z 26013KT 13/M03 A2974 RMK A01 T01321025  RH  034%=      5-min Rain = 0
KBY1 181122Z 25010KT 13/M02 A2973 RMK A01 T01331024  RH  034%=      5-min Rain = 0
KBY1 181123Z 24011KT 13/M02 A2973 RMK A01 T01321024  RH  034%=      5-min Rain = 0
KBY1 181124Z 24014KT 13/M02 A2973 RMK A01 T01321024  RH  034%=      5-min Rain = 0
KBY1 181125Z 25011KT 13/M02 A2973 RMK A01 T01321024  RH  034%=      5-min Rain = 0
KBY1 181126Z 25010KT 13/M02 A2973 RMK A01 T01321024  RH  034%=      5-min Rain = 0
KBY1 181127Z 25014G20KT 13/M02 A2973 RMK A01 T01311024  RH  034%=      5-min Rain = 0
KBY1 181128Z 25014G20KT 13/M02 A2973 RMK A01 T01311023  RH  034%=      5-min Rain = 0
KBY1 181129Z 25013G18KT 13/M02 A2973 RMK A01 T01321022  RH  034%=      5-min Rain = 0
KBY1 181130Z 25013KT 13/M02 A2974 RMK A01 T01321021  RH  035%=      5-min Rain = 0
KBY1 181131Z 25014KT 13/M02 A2974 RMK A01 T01311022  RH  035%=      5-min Rain = 0
KBY1 181132Z 25015KT 13/M02 A2973 RMK A01 T01311021  RH  035%=      5-min Rain = 0
KBY1 181133Z 25011G16KT 13/M02 A2974 RMK A01 T01311022  RH  035%=      5-min Rain = 0
KBY1 181134Z 26012KT 13/M02 A2974 RMK A01 T01301022  RH  035%=      5-min Rain = 0
KBY1 181135Z 26012G20KT 13/M02 A2974 RMK A01 T01291022  RH  035%=      5-min Rain = 0
KBY1 181136Z 27010KT 13/M02 A2974 RMK A01 T01281022  RH  035%=      5-min Rain = 0
KBY1 181137Z 26013KT 13/M02 A2974 RMK A01 T01271022  RH  035%=      5-min Rain = 0
KBY1 181138Z 26011KT 13/M02 A2974 RMK A01 T01261022  RH  035%=      5-min Rain = 0
KBY1 181139Z 26010G15KT 13/M02 A2974 RMK A01 T01261022  RH  036%=      5-min Rain = 0
KBY1 181140Z 25011KT 13/M02 A2974 RMK A01 T01251022  RH  036%=      5-min Rain = 0
KBY1 181141Z 26008KT 13/M02 A2974 RMK A01 T01251022  RH  036%=      5-min Rain = 0
KBY1 181142Z 26009KT 13/M02 A2974 RMK A01 T01251022  RH  036%=      5-min Rain = 0
KBY1 181143Z 26009KT 12/M02 A2974 RMK A01 T01241022  RH  036%=      5-min Rain = 0
KBY1 181144Z 25007KT 12/M02 A2974 RMK A01 T01241021  RH  036%=      5-min Rain = 0
KBY1 181145Z 27009KT 12/M02 A2974 RMK A01 T01231021  RH  037%=      5-min Rain = 0
KBY1 181146Z 26010KT 12/M02 A2974 RMK A01 T01221021  RH  037%=      5-min Rain = 0
KBY1 181147Z 26009KT 12/M02 A2973 RMK A01 T01221021  RH  037%=      5-min Rain = 0
KBY1 181148Z 24009G15KT 12/M02 A2973 RMK A01 T01221021  RH  037%=      5-min Rain = 0
KBY1 181149Z 26007KT 12/M02 A2973 RMK A01 T01221021  RH  037%=      5-min Rain = 0
KBY1 181150Z 25011G16KT 12/M02 A2972 RMK A01 T01211020  RH  037%=      5-min Rain = 0
KBY1 181151Z 26011KT 12/M02 A2972 RMK A01 T01231018  RH  037%=      5-min Rain = 0
KBY1 181152Z 25011KT 13/M02 A2972 RMK A01 T01251017  RH  037%=      5-min Rain = 0
KBY1 181153Z 24012KT 13/M02 A2972 RMK A01 T01251017  RH  037%=      5-min Rain = 0
KBY1 181154Z 25014G21KT 13/M02 A2972 RMK A01 T01261015  RH  038%=      5-min Rain = 0
KBY1 181155Z 26011KT 13/M01 A2972 RMK A01 T01271014  RH  038%=      5-min Rain = 0
KBY1 181156Z 25014KT 13/M01 A2972 RMK A01 T01271013  RH  038%=      5-min Rain = 0
KBY1 181157Z 26011KT 13/M01 A2972 RMK A01 T01271013  RH  038%=      5-min Rain = 0
KBY1 181158Z 26012KT 13/M01 A2972 RMK A01 T01271012  RH  038%=      5-min Rain = 0
KBY1 181159Z 26012KT 13/M01 A2973 RMK A01 T01271012  RH  038%=      5-min Rain = 0
KBY1 181200Z 26009KT 13/M01 A2973 RMK A01 T01271012  RH  038%=      5-min Rain = 0
KBY1 181201Z 26012KT 13/M01 A2973 RMK A01 T01271011  RH  038%=      5-min Rain = 0
KBY1 181202Z 25011KT 13/M01 A2973 RMK A01 T01271010  RH  039%=      5-min Rain = 0
KBY1 181203Z 26009KT 13/M01 A2973 RMK A01 T01271009  RH  039%=      5-min Rain = 0
KBY1 181204Z 26012KT 13/M01 A2972 RMK A01 T01271009  RH  039%=      5-min Rain = 0
KBY1 181205Z 26011KT 13/M01 A2972 RMK A01 T01271009  RH  039%=      5-min Rain = 0
KBY1 181206Z 27013KT 13/M01 A2972 RMK A01 T01271008  RH  039%=      5-min Rain = 0
KBY1 181207Z 26013KT 13/M01 A2972 RMK A01 T01271009  RH  039%=      5-min Rain = 0
KBY1 181208Z 27014KT 13/M01 A2972 RMK A01 T01271009  RH  039%=      5-min Rain = 0
KBY1 181209Z 27012G17KT 13/M01 A2972 RMK A01 T01271009  RH  039%=      5-min Rain = 0
KBY1 181210Z 27012KT 13/M01 A2972 RMK A01 T01271009  RH  039%=      5-min Rain = 0
KBY1 181211Z 27012KT 13/M01 A2972 RMK A01 T01261009  RH  039%=      5-min Rain = 0
KBY1 181212Z 27014G19KT 13/M01 A2972 RMK A01 T01261009  RH  039%=      5-min Rain = 0
KBY1 181213Z 27013KT 13/M01 A2972 RMK A01 T01261009  RH  039%=      5-min Rain = 0
KBY1 181214Z 27010KT 13/M01 A2973 RMK A01 T01251009  RH  040%=      5-min Rain = 0
KBY1 181215Z 27012KT 12/M01 A2973 RMK A01 T01241008  RH  040%=      5-min Rain = 0
KBY1 181216Z 27012KT 12/M01 A2973 RMK A01 T01241008  RH  040%=      5-min Rain = 0
KBY1 181217Z 26009G14KT 12/M01 A2973 RMK A01 T01231008  RH  040%=      5-min Rain = 0
KBY1 181218Z 25011G16KT 12/M01 A2972 RMK A01 T01221008  RH  041%=      5-min Rain = 0
KBY1 181219Z 26010KT 12/M01 A2972 RMK A01 T01221007  RH  041%=      5-min Rain = 0
KBY1 181220Z 25010KT 12/M01 A2972 RMK A01 T01221006  RH  041%=      5-min Rain = 0
KBY1 181221Z 25011KT 12/M01 A2972 RMK A01 T01221005  RH  041%=      5-min Rain = 0
KBY1 181222Z 25012KT 12/M00 A2972 RMK A01 T01221004  RH  042%=      5-min Rain = 0
KBY1 181223Z 25016G21KT 12/M00 A2972 RMK A01 T01241003  RH  042%=      5-min Rain = 0
KBY1 181224Z 24018G23KT 13/M00 A2971 RMK A01 T01251003  RH  041%=      5-min Rain = 0
KBY1 181225Z 25017KT 13/M00 A2972 RMK A01 T01261003  RH  041%=      5-min Rain = 0
KBY1 181226Z 25018KT 13/M00 A2971 RMK A01 T01261003  RH  041%=      5-min Rain = 0
KBY1 181227Z 24016KT 13/M00 A2971 RMK A01 T01261003  RH  041%=      5-min Rain = 0
KBY1 181228Z 25017KT 13/M00 A2971 RMK A01 T01271002  RH  041%=      5-min Rain = 0
KBY1 181229Z 25016G23KT 13/M00 A2971 RMK A01 T01271002  RH  041%=      5-min Rain = 0
KBY1 181230Z 26012KT 13/M00 A2971 RMK A01 T01271002  RH  041%=      5-min Rain = 0
KBY1 181231Z 25018G25KT 13/M00 A2971 RMK A01 T01261002  RH  042%=      5-min Rain = 0
KBY1 181232Z 25014KT 13/M00 A2971 RMK A01 T01261001  RH  042%=      5-min Rain = 0
KBY1 181233Z 26012KT 13/M00 A2971 RMK A01 T01261001  RH  042%=      5-min Rain = 0
KBY1 181234Z 25012KT 13/M00 A2971 RMK A01 T01251001  RH  042%=      5-min Rain = 0
KBY1 181235Z 25014KT 13/00 A2971 RMK A01 T012500-0  RH  042%=      5-min Rain = 0
KBY1 181236Z 25016G21KT 12/00 A2971 RMK A01 T012400-0  RH  042%=      5-min Rain = 0
KBY1 181237Z 25014G19KT 13/00 A2971 RMK A01 T01250000  RH  042%=      5-min Rain = 0
KBY1 181238Z 26014KT 13/00 A2971 RMK A01 T01260000  RH  042%=      5-min Rain = 0
KBY1 181239Z 25012KT 13/00 A2972 RMK A01 T01250000  RH  042%=      5-min Rain = 0
KBY1 181240Z 26013KT 12/00 A2972 RMK A01 T01240000  RH  043%=      5-min Rain = 0
KBY1 181241Z 25017KT 12/00 A2972 RMK A01 T01240001  RH  043%=      5-min Rain = 0
KBY1 181242Z 25018G27KT 13/00 A2971 RMK A01 T01250001  RH  043%=      5-min Rain = 0
KBY1 181243Z 25014G19KT 13/00 A2972 RMK A01 T01260001  RH  042%=      5-min Rain = 0
KBY1 181244Z 25016G23KT 13/00 A2972 RMK A01 T01260001  RH  042%=      5-min Rain = 0
KBY1 181245Z 25020G27KT 13/00 A2972 RMK A01 T01260002  RH  042%=      5-min Rain = 0
KBY1 181246Z 25018G24KT 13/00 A2972 RMK A01 T01260002  RH  042%=      5-min Rain = 0
KBY1 181247Z 25018G23KT 13/00 A2972 RMK A01 T01270002  RH  042%=      5-min Rain = 0
KBY1 181248Z 25021KT 13/00 A2972 RMK A01 T01270002  RH  042%=      5-min Rain = 0
KBY1 181249Z 26019KT 13/00 A2972 RMK A01 T01270001  RH  042%=      5-min Rain = 0
KBY1 181250Z 26017G22KT 13/00 A2972 RMK A01 T01270001  RH  042%=      5-min Rain = 0
KBY1 181251Z 26017G22KT 13/00 A2972 RMK A01 T01270001  RH  042%=      5-min Rain = 0
KBY1 181252Z 26013G18KT 13/00 A2972 RMK A01 T01260001  RH  042%=      5-min Rain = 0
KBY1 181253Z 26015KT 12/00 A2972 RMK A01 T01240000  RH  042%=      5-min Rain = 0
KBY1 181254Z 26015G20KT 12/00 A2972 RMK A01 T01240001  RH  043%=      5-min Rain = 0
KBY1 181255Z 26014KT 12/00 A2972 RMK A01 T01230001  RH  043%=      5-min Rain = 0
KBY1 181256Z 27011G16KT 12/00 A2973 RMK A01 T01230001  RH  043%=      5-min Rain = 0
KBY1 181257Z 27015KT 12/00 A2972 RMK A01 T01210001  RH  043%=      5-min Rain = 0
KBY1 181258Z 27015KT 12/00 A2972 RMK A01 T01210001  RH  044%=      5-min Rain = 0
KBY1 181259Z 26013G18KT 12/00 A2972 RMK A01 T01210001  RH  043%=      5-min Rain = 0
KBY1 181300Z 27014G19KT 12/00 A2972 RMK A01 T01220001  RH  043%=      5-min Rain = 0
KBY1 181301Z 26012KT 12/00 A2972 RMK A01 T01220001  RH  043%=      5-min Rain = 0
KBY1 181302Z 27011G16KT 12/00 A2973 RMK A01 T01220001  RH  043%=      5-min Rain = 0
KBY1 181303Z 27014G19KT 12/00 A2972 RMK A01 T01210001  RH  044%=      5-min Rain = 0
KBY1 181304Z 26011KT 12/00 A2973 RMK A01 T01210001  RH  044%=      5-min Rain = 0
KBY1 181305Z 27012KT 12/00 A2973 RMK A01 T01200001  RH  044%=      5-min Rain = 0
KBY1 181306Z 27013KT 12/00 A2972 RMK A01 T01190001  RH  044%=      5-min Rain = 0
KBY1 181307Z 28010KT 12/00 A2972 RMK A01 T01190001  RH  044%=      5-min Rain = 0
KBY1 181308Z 27011KT 12/00 A2973 RMK A01 T01200002  RH  044%=      5-min Rain = 0
KBY1 181309Z 27010KT 12/00 A2973 RMK A01 T01200002  RH  044%=      5-min Rain = 0
KBY1 181310Z 27009G14KT 12/00 A2973 RMK A01 T01190002  RH  044%=      5-min Rain = 0
KBY1 181311Z 27011KT 12/00 A2973 RMK A01 T01180002  RH  045%=      5-min Rain = 0
KBY1 181312Z 27011KT 12/00 A2973 RMK A01 T01180002  RH  045%=      5-min Rain = 0
KBY1 181313Z 26010KT 12/00 A2973 RMK A01 T01170002  RH  045%=      5-min Rain = 0
KBY1 181314Z 27012KT 12/00 A2973 RMK A01 T01160002  RH  045%=      5-min Rain = 0
KBY1 181315Z 26016KT 12/00 A2972 RMK A01 T01160003  RH  046%=      5-min Rain = 0
KBY1 181316Z 26013KT 12/00 A2972 RMK A01 T01180004  RH  046%=      5-min Rain = 0
KBY1 181317Z 27012KT 12/00 A2972 RMK A01 T01190004  RH  045%=      5-min Rain = 0
KBY1 181318Z 26011KT 12/00 A2972 RMK A01 T01180004  RH  045%=      5-min Rain = 0
KBY1 181319Z 27012KT 12/01 A2972 RMK A01 T01180005  RH  046%=      5-min Rain = 0
KBY1 181320Z 26015KT 12/01 A2972 RMK A01 T01170005  RH  046%=      5-min Rain = 0
KBY1 181321Z 26011G16KT 12/01 A2972 RMK A01 T01180005  RH  046%=      5-min Rain = 0
KBY1 181322Z 27015G22KT 12/01 A2972 RMK A01 T01180005  RH  046%=      5-min Rain = 0
KBY1 181323Z 26017G22KT 12/01 A2972 RMK A01 T01200005  RH  045%=      5-min Rain = 0
KBY1 181324Z 27014KT 12/01 A2972 RMK A01 T01200005  RH  045%=      5-min Rain = 0
KBY1 181325Z 26015KT 12/01 A2972 RMK A01 T01200005  RH  045%=      5-min Rain = 0
KBY1 181326Z 26013KT 12/01 A2972 RMK A01 T01200005  RH  045%=      5-min Rain = 0
KBY1 181327Z 26012KT 12/01 A2972 RMK A01 T01200006  RH  045%=      5-min Rain = 0
KBY1 181328Z 26015KT 12/01 A2972 RMK A01 T01190005  RH  046%=      5-min Rain = 0
KBY1 181329Z 26013KT 12/01 A2972 RMK A01 T01190005  RH  046%=      5-min Rain = 0
KBY1 181330Z 26011KT 12/01 A2972 RMK A01 T01190005  RH  046%=      5-min Rain = 0
KBY1 181331Z 26013KT 12/01 A2972 RMK A01 T01180005  RH  046%=      5-min Rain = 0
KBY1 181332Z 26012KT 12/01 A2972 RMK A01 T01180006  RH  046%=      5-min Rain = 0
KBY1 181333Z 26016KT 12/01 A2972 RMK A01 T01180006  RH  046%=      5-min Rain = 0
KBY1 181334Z 26012KT 12/01 A2972 RMK A01 T01190006  RH  046%=      5-min Rain = 0
KBY1 181335Z 26013G19KT 12/01 A2972 RMK A01 T01190006  RH  046%=      5-min Rain = 0
KBY1 181336Z 26014KT 12/01 A2972 RMK A01 T01180006  RH  046%=      5-min Rain = 0
KBY1 181337Z 26015KT 12/01 A2972 RMK A01 T01190006  RH  046%=      5-min Rain = 0
KBY1 181338Z 26014KT 12/01 A2972 RMK A01 T01190006  RH  046%=      5-min Rain = 0
KBY1 181339Z 27012KT 12/01 A2972 RMK A01 T01190006  RH  046%=      5-min Rain = 0
KBY1 181340Z 26012KT 12/01 A2972 RMK A01 T01190006  RH  046%=      5-min Rain = 0
KBY1 181341Z 26013KT 12/01 A2972 RMK A01 T01190006  RH  046%=      5-min Rain = 0
KBY1 181342Z 26012KT 12/01 A2972 RMK A01 T01190007  RH  046%=      5-min Rain = 0
KBY1 181343Z 26013KT 12/01 A2972 RMK A01 T01180006  RH  046%=      5-min Rain = 0
KBY1 181344Z 26014KT 12/01 A2972 RMK A01 T01180006  RH  046%=      5-min Rain = 0
KBY1 181345Z 26015KT 12/01 A2972 RMK A01 T01180007  RH  046%=      5-min Rain = 0
KBY1 181346Z 26013KT 12/01 A2972 RMK A01 T01180007  RH  046%=      5-min Rain = 0
KBY1 181347Z 25014KT 12/01 A2972 RMK A01 T01180006  RH  046%=      5-min Rain = 0
KBY1 181348Z 25015G21KT 12/01 A2971 RMK A01 T01180007  RH  046%=      5-min Rain = 0
KBY1 181349Z 26013KT 12/01 A2971 RMK A01 T01180007  RH  046%=      5-min Rain = 0
KBY1 181350Z 25014G21KT 12/01 A2971 RMK A01 T01180007  RH  047%=      5-min Rain = 0
KBY1 181351Z 25013G21KT 12/01 A2971 RMK A01 T01170007  RH  047%=      5-min Rain = 0
KBY1 181352Z 25019G25KT 12/01 A2971 RMK A01 T01170007  RH  047%=      5-min Rain = 0
KBY1 181353Z 25014KT 12/01 A2971 RMK A01 T01180007  RH  046%=      5-min Rain = 0
KBY1 181354Z 25014G19KT 12/01 A2971 RMK A01 T01180006  RH  046%=      5-min Rain = 0
KBY1 181355Z 25012KT 12/01 A2971 RMK A01 T01180007  RH  046%=      5-min Rain = 0
KBY1 181356Z 25012KT 12/01 A2971 RMK A01 T01180007  RH  046%=      5-min Rain = 0
KBY1 181357Z 25015G20KT 12/01 A2971 RMK A01 T01170007  RH  047%=      5-min Rain = 0
KBY1 181358Z 25015KT 12/01 A2971 RMK A01 T01170006  RH  046%=      5-min Rain = 0
KBY1 181359Z 25013G18KT 12/01 A2971 RMK A01 T01180006  RH  046%=      5-min Rain = 0
KBY1 181400Z 25013KT 12/01 A2972 RMK A01 T01170006  RH  046%=      5-min Rain = 0
KBY1 181401Z 25014KT 12/01 A2971 RMK A01 T01170006  RH  046%=      5-min Rain = 0
KBY1 181402Z 26015KT 12/01 A2971 RMK A01 T01170005  RH  046%=      5-min Rain = 0
KBY1 181403Z 25013KT 12/01 A2971 RMK A01 T01180005  RH  046%=      5-min Rain = 0
KBY1 181404Z 25014KT 12/00 A2971 RMK A01 T01170004  RH  046%=      5-min Rain = 0
KBY1 181405Z 25013KT 12/00 A2971 RMK A01 T01170004  RH  046%=      5-min Rain = 0
KBY1 181406Z 25014G20KT 12/00 A2971 RMK A01 T01170004  RH  046%=      5-min Rain = 0
KBY1 181407Z 25014KT 12/00 A2971 RMK A01 T01170004  RH  046%=      5-min Rain = 0
KBY1 181408Z 25015KT 12/00 A2971 RMK A01 T01170003  RH  046%=      5-min Rain = 0
KBY1 181409Z 25017KT 12/00 A2971 RMK A01 T01170003  RH  045%=      5-min Rain = 0
KBY1 181410Z 25015KT 12/00 A2971 RMK A01 T01170003  RH  045%=      5-min Rain = 0
KBY1 181411Z 25013KT 12/00 A2971 RMK A01 T01180003  RH  045%=      5-min Rain = 0
KBY1 181412Z 25013G18KT 12/00 A2971 RMK A01 T01180003  RH  045%=      5-min Rain = 0
KBY1 181413Z 25013KT 12/00 A2971 RMK A01 T01170002  RH  045%=      5-min Rain = 0
KBY1 181414Z 25012KT 12/00 A2971 RMK A01 T01170002  RH  045%=      5-min Rain = 0
KBY1 181415Z 25014KT 12/00 A2971 RMK A01 T01170002  RH  045%=      5-min Rain = 0
KBY1 181416Z 25015G20KT 12/00 A2971 RMK A01 T01170003  RH  045%=      5-min Rain = 0
KBY1 181417Z 25014G19KT 12/00 A2971 RMK A01 T01170003  RH  045%=      5-min Rain = 0
KBY1 181418Z 25017KT 12/00 A2971 RMK A01 T01170003  RH  045%=      5-min Rain = 0
KBY1 181419Z 25017KT 12/00 A2971 RMK A01 T01180003  RH  045%=      5-min Rain = 0
KBY1 181420Z 25018G24KT 12/00 A2971 RMK A01 T01190004  RH  045%=      5-min Rain = 0
KBY1 181421Z 26017KT 12/00 A2971 RMK A01 T01190004  RH  045%=      5-min Rain = 0
KBY1 181422Z 25020G25KT 12/00 A2971 RMK A01 T01190004  RH  045%=      5-min Rain = 0
KBY1 181423Z 25019KT 12/01 A2971 RMK A01 T01190005  RH  045%=      5-min Rain = 0
KBY1 181424Z 25020G26KT 12/01 A2971 RMK A01 T01190005  RH  045%=      5-min Rain = 0
KBY1 181425Z 26016KT 12/01 A2971 RMK A01 T01190005  RH  045%=      5-min Rain = 0
KBY1 181426Z 26017G23KT 12/01 A2971 RMK A01 T01190005  RH  046%=      5-min Rain = 0
KBY1 181427Z 26017KT 12/01 A2971 RMK A01 T01190006  RH  046%=      5-min Rain = 0
KBY1 181428Z 26017G22KT 12/01 A2971 RMK A01 T01190006  RH  046%=      5-min Rain = 0
KBY1 181429Z 26017G24KT 12/01 A2971 RMK A01 T01190006  RH  046%=      5-min Rain = 0
KBY1 181430Z 26017G22KT 12/01 A2971 RMK A01 T01190006  RH  046%=      5-min Rain = 0
KBY1 181431Z 25020G25KT 12/01 A2971 RMK A01 T01190006  RH  046%=      5-min Rain = 0
KBY1 181432Z 26019G25KT 12/01 A2971 RMK A01 T01190006  RH  046%=      5-min Rain = 0
KBY1 181433Z 26015G20KT 12/01 A2971 RMK A01 T01190007  RH  046%=      5-min Rain = 0
KBY1 181434Z 26016G23KT 12/01 A2971 RMK A01 T01180007  RH  046%=      5-min Rain = 0
KBY1 181435Z 26016G21KT 12/01 A2971 RMK A01 T01190008  RH  046%=      5-min Rain = 0
KBY1 181436Z 26016KT 12/01 A2971 RMK A01 T01190008  RH  047%=      5-min Rain = 0
KBY1 181437Z 26020G25KT 12/01 A297 RMK A01 T01190008  RH  047%=      5-min Rain = 0
KBY1 181438Z 26018KT 12/01 A2971 RMK A01 T01190008  RH  046%=      5-min Rain = 0
KBY1 181439Z 25018G28KT 12/01 A297 RMK A01 T01190008  RH  046%=      5-min Rain = 0
KBY1 181440Z 26012KT 12/01 A2971 RMK A01 T01190008  RH  046%=      5-min Rain = 0
KBY1 181441Z 26015KT 12/01 A2971 RMK A01 T01190008  RH  047%=      5-min Rain = 0
KBY1 181442Z 26016G22KT 12/01 A2971 RMK A01 T01190009  RH  047%=      5-min Rain = 0
KBY1 181443Z 26018G24KT 12/01 A297 RMK A01 T01190009  RH  047%=      5-min Rain = 0
KBY1 181444Z 25018KT 12/01 A2971 RMK A01 T01190009  RH  047%=      5-min Rain = 0
KBY1 181445Z 26017KT 12/01 A2971 RMK A01 T01200010  RH  047%=      5-min Rain = 0
KBY1 181446Z 26015G20KT 12/01 A2971 RMK A01 T01200010  RH  047%=      5-min Rain = 0
KBY1 181447Z 26012KT 12/01 A2971 RMK A01 T01190010  RH  047%=      5-min Rain = 0
KBY1 181448Z 26016KT 12/01 A2971 RMK A01 T01180010  RH  047%=      5-min Rain = 0
KBY1 181449Z 26014G20KT 12/01 A2971 RMK A01 T01180010  RH  047%=      5-min Rain = 0
KBY1 181450Z 26014KT 12/01 A2971 RMK A01 T01180010  RH  048%=      5-min Rain = 0
KBY1 181451Z 26017KT 12/01 A2971 RMK A01 T01180010  RH  048%=      5-min Rain = 0
KBY1 181452Z 26015KT 12/01 A2971 RMK A01 T01180011  RH  048%=      5-min Rain = 0
KBY1 181453Z 26013KT 12/01 A2971 RMK A01 T01180011  RH  048%=      5-min Rain = 0
KBY1 181454Z 26012KT 12/01 A2971 RMK A01 T01180011  RH  048%=      5-min Rain = 0
KBY1 181455Z 26015KT 12/01 A2971 RMK A01 T01180011  RH  048%=      5-min Rain = 0
KBY1 181456Z 26013KT 12/01 A2971 RMK A01 T01180011  RH  048%=      5-min Rain = 0
KBY1 181457Z 26013G19KT 12/01 A2971 RMK A01 T01170011  RH  048%=      5-min Rain = 0
KBY1 181458Z 26011KT 12/01 A2971 RMK A01 T01170011  RH  048%=      5-min Rain = 0
KBY1 181459Z 26014KT 12/01 A2971 RMK A01 T01170011  RH  048%=      5-min Rain = 0
KBY1 181500Z 26016G21KT 12/01 A2971 RMK A01 T01170011  RH  048%=      5-min Rain = 0
KBY1 181501Z 26016G21KT 12/01 A2971 RMK A01 T01180012  RH  048%=      5-min Rain = 0
KBY1 181502Z 26014KT 12/01 A2971 RMK A01 T01180012  RH  048%=      5-min Rain = 0
KBY1 181503Z 26017G24KT 12/01 A2971 RMK A01 T01180012  RH  048%=      5-min Rain = 0
KBY1 181504Z 26017KT 12/01 A2971 RMK A01 T01180012  RH  048%=      5-min Rain = 0
KBY1 181505Z 26018KT 12/01 A2971 RMK A01 T01180012  RH  048%=      5-min Rain = 0
KBY1 181506Z 26015KT 12/01 A2971 RMK A01 T01190013  RH  048%=      5-min Rain = 0
KBY1 181507Z 26016KT 12/01 A2971 RMK A01 T01190013  RH  048%=      5-min Rain = 0
KBY1 181508Z 26016KT 12/01 A2971 RMK A01 T01190013  RH  048%=      5-min Rain = 0
KBY1 181509Z 25014KT 12/01 A2971 RMK A01 T01180013  RH  048%=      5-min Rain = 0
KBY1 181510Z 26013G18KT 12/01 A2971 RMK A01 T01190014  RH  049%=      5-min Rain = 0
KBY1 181511Z 26014G20KT 12/01 A297 RMK A01 T01180014  RH  049%=      5-min Rain = 0
KBY1 181512Z 25017KT 12/01 A297 RMK A01 T01190014  RH  049%=      5-min Rain = 0
KBY1 181513Z 25017G22KT 12/01 A297 RMK A01 T01190014  RH  049%=      5-min Rain = 0
KBY1 181514Z 25015G20KT 12/02 A297 RMK A01 T01200015  RH  049%=      5-min Rain = 0
KBY1 181515Z 25013KT 12/02 A297 RMK A01 T01200015  RH  048%=      5-min Rain = 0
KBY1 181516Z 25015G23KT 12/02 A297 RMK A01 T01200015  RH  049%=      5-min Rain = 0
KBY1 181517Z 25020G25KT 12/02 A297 RMK A01 T01200016  RH  049%=      5-min Rain = 0
KBY1 181518Z 25018KT 12/02 A297 RMK A01 T01210016  RH  049%=      5-min Rain = 0
KBY1 181519Z 26020G26KT 12/02 A297 RMK A01 T01210016  RH  048%=      5-min Rain = 0
KBY1 181520Z 26015G24KT 12/02 A297 RMK A01 T01210016  RH  049%=      5-min Rain = 0
KBY1 181521Z 25014G20KT 12/02 A297 RMK A01 T01210016  RH  049%=      5-min Rain = 0
KBY1 181522Z 26017G22KT 12/02 A297 RMK A01 T01210017  RH  049%=      5-min Rain = 0
KBY1 181523Z 26016G21KT 12/02 A297 RMK A01 T01210017  RH  049%=      5-min Rain = 0
KBY1 181524Z 25017KT 12/02 A297 RMK A01 T01220017  RH  049%=      5-min Rain = 0
KBY1 181525Z 26016KT 12/02 A297 RMK A01 T01220017  RH  049%=      5-min Rain = 0
KBY1 181526Z 26013KT 12/02 A297 RMK A01 T01220017  RH  049%=      5-min Rain = 0
KBY1 181527Z 26015KT 12/02 A297 RMK A01 T01220017  RH  049%=      5-min Rain = 0
KBY1 181528Z 26015G23KT 12/02 A2969 RMK A01 T01220018  RH  049%=      5-min Rain = 0
KBY1 181529Z 25016G22KT 12/02 A2969 RMK A01 T01220018  RH  049%=      5-min Rain = 0
KBY1 181530Z 26016G22KT 12/02 A2969 RMK A01 T01220018  RH  049%=      5-min Rain = 0
KBY1 181531Z 25018KT 12/02 A2969 RMK A01 T01220019  RH  049%=      5-min Rain = 0
KBY1 181532Z 25017KT 12/02 A2969 RMK A01 T01220019  RH  049%=      5-min Rain = 0
KBY1 181533Z 25020G25KT 12/02 A2969 RMK A01 T01230019  RH  049%=      5-min Rain = 0
KBY1 181534Z 25018KT 12/02 A2969 RMK A01 T01230019  RH  049%=      5-min Rain = 0
KBY1 181535Z 25014G21KT 12/02 A2969 RMK A01 T01240020  RH  049%=      5-min Rain = 0
KBY1 181536Z 26015G23KT 12/02 A2969 RMK A01 T01240020  RH  049%=      5-min Rain = 0
KBY1 181537Z 25017G22KT 12/02 A2969 RMK A01 T01240020  RH  049%=      5-min Rain = 0
KBY1 181538Z 26016G22KT 12/02 A2969 RMK A01 T01240021  RH  049%=      5-min Rain = 0
KBY1 181539Z 26017KT 12/02 A2969 RMK A01 T01240021  RH  049%=      5-min Rain = 0
KBY1 181540Z 26018G25KT 12/02 A2969 RMK A01 T01240020  RH  049%=      5-min Rain = 0
KBY1 181541Z 26020G27KT 12/02 A2969 RMK A01 T01240021  RH  049%=      5-min Rain = 0
KBY1 181542Z 25018G24KT 12/02 A2969 RMK A01 T01240021  RH  049%=      5-min Rain = 0
KBY1 181543Z 26018G27KT 12/02 A2969 RMK A01 T01240021  RH  049%=      5-min Rain = 0
KBY1 181544Z 26019G24KT 13/02 A2969 RMK A01 T01250021  RH  049%=      5-min Rain = 0
KBY1 181545Z 26019G25KT 13/02 A2969 RMK A01 T01250021  RH  049%=      5-min Rain = 0
KBY1 181546Z 25018KT 12/02 A2969 RMK A01 T01240021  RH  049%=      5-min Rain = 0
KBY1 181547Z 25018G25KT 12/02 A2969 RMK A01 T01240021  RH  049%=      5-min Rain = 0
KBY1 181548Z 26019KT 13/02 A2969 RMK A01 T01250021  RH  049%=      5-min Rain = 0
KBY1 181549Z 26017G24KT 13/02 A2969 RMK A01 T01250021  RH  049%=      5-min Rain = 0
KBY1 181550Z 25017KT 13/02 A2969 RMK A01 T01250022  RH  049%=      5-min Rain = 0
KBY1 181551Z 25019G26KT 13/02 A2969 RMK A01 T01250022  RH  049%=      5-min Rain = 0
KBY1 181552Z 25016G22KT 13/02 A2969 RMK A01 T01250022  RH  049%=      5-min Rain = 0
KBY1 181553Z 25021G29KT 13/02 A2969 RMK A01 T01250022  RH  049%=      5-min Rain = 0
KBY1 181554Z 25019KT 13/02 A2969 RMK A01 T01250022  RH  049%=      5-min Rain = 0
KBY1 181555Z 25022G29KT 13/02 A2968 RMK A01 T01260023  RH  049%=      5-min Rain = 0
KBY1 181556Z 25018G25KT 13/02 A2968 RMK A01 T01260023  RH  049%=      5-min Rain = 0
KBY1 181557Z 25019G28KT 13/02 A2968 RMK A01 T01270023  RH  049%=      5-min Rain = 0
KBY1 181558Z 25021KT 13/02 A2968 RMK A01 T01270023  RH  049%=      5-min Rain = 0
KBY1 181559Z 25021G26KT 13/02 A2968 RMK A01 T01280024  RH  049%=      5-min Rain = 0
KBY1 181600Z 26021G29KT 13/02 A2968 RMK A01 T01290024  RH  049%=      5-min Rain = 0
KBY1 181601Z 25020G26KT 13/02 A2968 RMK A01 T01300024  RH  048%=      5-min Rain = 0
KBY1 181602Z 25021G27KT 13/02 A2968 RMK A01 T01310024  RH  048%=      5-min Rain = 0
KBY1 181603Z 25018G24KT 13/03 A2968 RMK A01 T01310025  RH  048%=      5-min Rain = 0
KBY1 181604Z 26016KT 13/03 A2968 RMK A01 T01330026  RH  048%=      5-min Rain = 0
KBY1 181605Z 26018KT 14/03 A2968 RMK A01 T01350026  RH  048%=      5-min Rain = 0
KBY1 181606Z 25018G23KT 14/03 A2968 RMK A01 T01370026  RH  047%=      5-min Rain = 0
KBY1 181607Z 25019KT 14/03 A2968 RMK A01 T01380026  RH  047%=      5-min Rain = 0
KBY1 181608Z 25018G24KT 14/03 A2968 RMK A01 T01370026  RH  047%=      5-min Rain = 0
KBY1 181609Z 26022G32KT 14/03 A2968 RMK A01 T01360026  RH  047%=      5-min Rain = 0
KBY1 181610Z 26024KT 14/03 A2968 RMK A01 T01350025  RH  047%=      5-min Rain = 0
KBY1 181611Z 25019G25KT 13/03 A2968 RMK A01 T01340025  RH  048%=      5-min Rain = 0
KBY1 181612Z 25022G28KT 13/03 A2967 RMK A01 T01340025  RH  048%=      5-min Rain = 0
KBY1 181613Z 25024G29KT 13/03 A2968 RMK A01 T01330025  RH  048%=      5-min Rain = 0
KBY1 181614Z 26021G27KT 13/03 A2968 RMK A01 T01330025  RH  048%=      5-min Rain = 0
KBY1 181615Z 25023G32KT 13/03 A2967 RMK A01 T01330025  RH  048%=      5-min Rain = 0
KBY1 181616Z 25020G27KT 13/03 A2967 RMK A01 T01320025  RH  048%=      5-min Rain = 0
KBY1 181617Z 25023G32KT 13/03 A2968 RMK A01 T01320025  RH  048%=      5-min Rain = 0
KBY1 181618Z 26022G28KT 13/03 A2968 RMK A01 T01320025  RH  048%=      5-min Rain = 0
KBY1 181619Z 25023G28KT 13/03 A2967 RMK A01 T01320025  RH  048%=      5-min Rain = 0
KBY1 181620Z 25021G27KT 13/03 A2967 RMK A01 T01320025  RH  048%=      5-min Rain = 0
KBY1 181621Z 26022G29KT 13/03 A2967 RMK A01 T01320025  RH  048%=      5-min Rain = 0
KBY1 181622Z 25020G29KT 13/03 A2967 RMK A01 T01320025  RH  048%=      5-min Rain = 0
KBY1 181623Z 25023G29KT 13/03 A2967 RMK A01 T01320025  RH  048%=      5-min Rain = 0
KBY1 181624Z 25017KT 13/03 A2968 RMK A01 T01320025  RH  048%=      5-min Rain = 0
KBY1 181625Z 25021KT 13/03 A2968 RMK A01 T01330025  RH  048%=      5-min Rain = 0
KBY1 181626Z 25017KT 13/03 A2968 RMK A01 T01330025  RH  048%=      5-min Rain = 0
KBY1 181627Z 26018G24KT 13/03 A2968 RMK A01 T01330025  RH  048%=      5-min Rain = 0
KBY1 181628Z 25013KT 13/03 A2968 RMK A01 T01330026  RH  048%=      5-min Rain = 0
KBY1 181629Z 25014G20KT 13/03 A2968 RMK A01 T01340026  RH  048%=      5-min Rain = 0
KBY1 181630Z 25019G24KT 13/03 A2968 RMK A01 T01340026  RH  048%=      5-min Rain = 0
KBY1 181631Z 25019G24KT 13/03 A2968 RMK A01 T01340026  RH  048%=      5-min Rain = 0
KBY1 181632Z 26019G24KT 13/03 A2968 RMK A01 T01340026  RH  048%=      5-min Rain = 0
KBY1 181633Z 25020G25KT 13/03 A2968 RMK A01 T01340026  RH  048%=      5-min Rain = 0
KBY1 181634Z 25019KT 14/03 A2968 RMK A01 T01350026  RH  048%=      5-min Rain = 0
KBY1 181635Z 25018G23KT 14/03 A2968 RMK A01 T01350026  RH  048%=      5-min Rain = 0
KBY1 181636Z 26017KT 14/03 A2968 RMK A01 T01350026  RH  048%=      5-min Rain = 0
KBY1 181637Z 26017G24KT 14/03 A2968 RMK A01 T01350026  RH  048%=      5-min Rain = 0
KBY1 181638Z 26022G28KT 13/03 A2968 RMK A01 T01340026  RH  048%=      5-min Rain = 0
KBY1 181639Z 26018KT 13/03 A2968 RMK A01 T01330026  RH  048%=      5-min Rain = 0
KBY1 181640Z 26017KT 13/03 A2968 RMK A01 T01330026  RH  048%=      5-min Rain = 0
KBY1 181641Z 25019KT 13/03 A2968 RMK A01 T01330026  RH  048%=      5-min Rain = 0
KBY1 181642Z 26018G23KT 13/03 A2968 RMK A01 T01330026  RH  048%=      5-min Rain = 0
KBY1 181643Z 26015G24KT 13/03 A2968 RMK A01 T01330026  RH  048%=      5-min Rain = 0
KBY1 181644Z 26018G26KT 13/03 A2968 RMK A01 T01330026  RH  048%=      5-min Rain = 0
KBY1 181645Z 26014KT 13/03 A2968 RMK A01 T01340026  RH  048%=      5-min Rain = 0
KBY1 181646Z 26017KT 13/03 A2968 RMK A01 T01330026  RH  048%=      5-min Rain = 0
KBY1 181647Z 25016KT 13/03 A2968 RMK A01 T01340026  RH  048%=      5-min Rain = 0
KBY1 181648Z 26019KT 13/03 A2968 RMK A01 T01340026  RH  048%=      5-min Rain = 0
KBY1 181649Z 26018G23KT 14/03 A2968 RMK A01 T01350027  RH  048%=      5-min Rain = 0
KBY1 181650Z 26020G27KT 14/03 A2968 RMK A01 T01360027  RH  048%=      5-min Rain = 0
KBY1 181651Z 25025KT 14/03 A2967 RMK A01 T01360026  RH  047%=      5-min Rain = 0
KBY1 181652Z 26020G27KT 14/03 A2967 RMK A01 T01360026  RH  047%=      5-min Rain = 0
KBY1 181653Z 25020G27KT 14/03 A2968 RMK A01 T01370026  RH  047%=      5-min Rain = 0
KBY1 181654Z 26020G28KT 14/03 A2968 RMK A01 T01370026  RH  047%=      5-min Rain = 0
KBY1 181655Z 26019G24KT 14/03 A2968 RMK A01 T01380027  RH  047%=      5-min Rain = 0
KBY1 181656Z 25019KT 14/03 A2967 RMK A01 T01400027  RH  047%=      5-min Rain = 0
KBY1 181657Z 26014KT 14/03 A2968 RMK A01 T01410028  RH  046%=      5-min Rain = 0
KBY1 181658Z 26013KT 14/03 A2968 RMK A01 T01430029  RH  046%=      5-min Rain = 0
KBY1 181659Z 25012G19KT 15/03 A2968 RMK A01 T01450029  RH  046%=      5-min Rain = 0
KBY1 181700Z 27016G21KT 15/03 A2967 RMK A01 T01470029  RH  045%=      5-min Rain = 0
KBY1 181701Z 26021KT 15/03 A2967 RMK A01 T01470028  RH  044%=      5-min Rain = 0
KBY1 181702Z 25019KT 15/03 A2967 RMK A01 T01470027  RH  044%=      5-min Rain = 0
KBY1 181703Z 26013KT 15/03 A2967 RMK A01 T01460027  RH  045%=      5-min Rain = 0
KBY1 181704Z 26012KT 15/03 A2967 RMK A01 T01470028  RH  045%=      5-min Rain = 0
KBY1 181705Z 26014KT 15/03 A2967 RMK A01 T01480028  RH  044%=      5-min Rain = 0
KBY1 181706Z 26015G21KT 15/03 A2967 RMK A01 T01480027  RH  044%=      5-min Rain = 0
KBY1 181707Z 26018G23KT 15/03 A2967 RMK A01 T01480027  RH  044%=      5-min Rain = 0
KBY1 181708Z 26015KT 15/03 A2967 RMK A01 T01480026  RH  044%=      5-min Rain = 0
KBY1 181709Z 26020G26KT 15/03 A2966 RMK A01 T01470026  RH  044%=      5-min Rain = 0
KBY1 181710Z 25017G23KT 15/02 A2966 RMK A01 T01470024  RH  044%=      5-min Rain = 0
KBY1 181711Z 26015KT 15/02 A2966 RMK A01 T01460024  RH  044%=      5-min Rain = 0
KBY1 181712Z 26015G25KT 15/03 A2967 RMK A01 T01460025  RH  044%=      5-min Rain = 0
KBY1 181713Z 25017G25KT 15/02 A2966 RMK A01 T01460024  RH  044%=      5-min Rain = 0
KBY1 181714Z 25016G22KT 15/03 A2967 RMK A01 T01460025  RH  044%=      5-min Rain = 0
KBY1 181715Z 26021KT 15/03 A2967 RMK A01 T01450025  RH  044%=      5-min Rain = 0
KBY1 181716Z 26018KT 14/02 A2967 RMK A01 T01440024  RH  044%=      5-min Rain = 0
KBY1 181717Z 26017KT 14/02 A2966 RMK A01 T01430024  RH  045%=      5-min Rain = 0
KBY1 181718Z 25015KT 14/02 A2967 RMK A01 T01430024  RH  045%=      5-min Rain = 0
KBY1 181719Z 25016G22KT 14/02 A2967 RMK A01 T01420024  RH  045%=      5-min Rain = 0
KBY1 181720Z 26012KT 14/03 A2967 RMK A01 T01420025  RH  045%=      5-min Rain = 0
KBY1 181721Z 26013KT 14/03 A2967 RMK A01 T01420025  RH  045%=      5-min Rain = 0
KBY1 181722Z 26012KT 14/03 A2967 RMK A01 T01420025  RH  045%=      5-min Rain = 0
KBY1 181723Z 26014G20KT 14/03 A2967 RMK A01 T01420025  RH  045%=      5-min Rain = 0
KBY1 181724Z 26017KT 14/02 A2966 RMK A01 T01420023  RH  045%=      5-min Rain = 0
KBY1 181725Z 26017KT 14/02 A2966 RMK A01 T01420022  RH  044%=      5-min Rain = 0
KBY1 181726Z 26014G19KT 14/02 A2966 RMK A01 T01420023  RH  044%=      5-min Rain = 0
KBY1 181727Z 25014G21KT 14/02 A2966 RMK A01 T01430024  RH  045%=      5-min Rain = 0
KBY1 181728Z 26016G22KT 14/02 A2966 RMK A01 T01430022  RH  044%=      5-min Rain = 0
KBY1 181729Z 26017KT 14/02 A2966 RMK A01 T01440022  RH  044%=      5-min Rain = 0
KBY1 181730Z 26017G22KT 14/02 A2966 RMK A01 T01440023  RH  044%=      5-min Rain = 0
KBY1 181731Z 26011KT 15/02 A2967 RMK A01 T01450024  RH  044%=      5-min Rain = 0
KBY1 181732Z 26013KT 15/03 A2967 RMK A01 T01470025  RH  044%=      5-min Rain = 0
KBY1 181733Z 27011G17KT 15/03 A2967 RMK A01 T01500027  RH  043%=      5-min Rain = 0
KBY1 181734Z 26016G22KT 15/03 A2967 RMK A01 T01520025  RH  042%=      5-min Rain = 0
KBY1 181735Z 25012KT 15/03 A2966 RMK A01 T01520025  RH  042%=      5-min Rain = 0
KBY1 181736Z 26014G19KT 15/03 A2966 RMK A01 T01530025  RH  042%=      5-min Rain = 0
KBY1 181737Z 27017G22KT 15/02 A2966 RMK A01 T01540024  RH  041%=      5-min Rain = 0
KBY1 181738Z 26016KT 16/02 A2966 RMK A01 T01550020  RH  040%=      5-min Rain = 0
KBY1 181739Z 26015KT 16/02 A2966 RMK A01 T01550021  RH  041%=      5-min Rain = 0
KBY1 181740Z 26012KT 16/02 A2966 RMK A01 T01560023  RH  041%=      5-min Rain = 0
KBY1 181741Z 27017G23KT 16/02 A2966 RMK A01 T01580022  RH  040%=      5-min Rain = 0
KBY1 181742Z 27018G24KT 16/02 A2966 RMK A01 T01590018  RH  038%=      5-min Rain = 0
KBY1 181743Z 26017G22KT 16/02 A2966 RMK A01 T01600015  RH  038%=      5-min Rain = 0
KBY1 181744Z 26018G26KT 16/02 A2966 RMK A01 T01620017  RH  037%=      5-min Rain = 0
KBY1 181745Z 28022G29KT 16/02 A2965 RMK A01 T01630015  RH  037%=      5-min Rain = 0
KBY1 181746Z 27026G34KT 16/01 A2965 RMK A01 T01600014  RH  037%=      5-min Rain = 0
KBY1 181747Z 26025G30KT 16/01 A2965 RMK A01 T01580012  RH  037%=      5-min Rain = 0
KBY1 181748Z 27023G28KT 16/01 A2965 RMK A01 T01570012  RH  037%=      5-min Rain = 0
KBY1 181749Z 26024G31KT 16/01 A2965 RMK A01 T01560011  RH  038%=      5-min Rain = 0
KBY1 181750Z 26022G29KT 16/01 A2965 RMK A01 T01550011  RH  038%=      5-min Rain = 0
KBY1 181751Z 28020G25KT 16/01 A2965 RMK A01 T01550011  RH  038%=      5-min Rain = 0
KBY1 181752Z 27018KT 15/01 A2965 RMK A01 T01530013  RH  039%=      5-min Rain = 0
KBY1 181753Z 27019G25KT 15/01 A2966 RMK A01 T01520014  RH  039%=      5-min Rain = 0
KBY1 181754Z 27020G25KT 15/01 A2965 RMK A01 T01520014  RH  039%=      5-min Rain = 0
KBY1 181755Z 27017G23KT 15/02 A2966 RMK A01 T01520015  RH  039%=      5-min Rain = 0
KBY1 181756Z 27020KT 15/02 A2965 RMK A01 T01530015  RH  039%=      5-min Rain = 0
KBY1 181757Z 27020KT 15/01 A2965 RMK A01 T01530013  RH  039%=      5-min Rain = 0
KBY1 181758Z 27017KT 15/02 A2965 RMK A01 T01540015  RH  039%=      5-min Rain = 0
KBY1 181759Z 28019G26KT 16/02 A2965 RMK A01 T01550015  RH  039%=      5-min Rain = 0
KBY1 181800Z 27018G23KT 16/01 A2965 RMK A01 T01560013  RH  038%=      5-min Rain = 0
KBY1 181801Z 27016KT 16/01 A2965 RMK A01 T01560014  RH  038%=      5-min Rain = 0
KBY1 181802Z 26018G23KT 16/02 A2964 RMK A01 T01580015  RH  038%=      5-min Rain = 0
KBY1 181803Z 26020G28KT 16/02 A2964 RMK A01 T01610015  RH  037%=      5-min Rain = 0
KBY1 181804Z 27027G32KT 16/01 A2964 RMK A01 T01620013  RH  037%=      5-min Rain = 0
KBY1 181805Z 26019G26KT 16/01 A2964 RMK A01 T01610013  RH  037%=      5-min Rain = 0
KBY1 181806Z 26021G26KT 16/02 A2964 RMK A01 T01630016  RH  037%=      5-min Rain = 0
KBY1 181807Z 26018KT 16/02 A2964 RMK A01 T01640015  RH  036%=      5-min Rain = 0
KBY1 181808Z 27024KT 16/01 A2964 RMK A01 T01640012  RH  036%=      5-min Rain = 0
KBY1 181809Z 27021KT 16/01 A2963 RMK A01 T01630012  RH  036%=      5-min Rain = 0
KBY1 181810Z 27020G28KT 16/01 A2963 RMK A01 T01630012  RH  036%=      5-min Rain = 0
KBY1 181811Z 27025G32KT 16/01 A2963 RMK A01 T01640010  RH  035%=      5-min Rain = 0
KBY1 181812Z 27025G31KT 16/01 A2963 RMK A01 T01630009  RH  035%=      5-min Rain = 0
KBY1 181813Z 27023KT 16/01 A2964 RMK A01 T01620009  RH  035%=      5-min Rain = 0
KBY1 181814Z 27023G28KT 16/01 A2964 RMK A01 T01630010  RH  036%=      5-min Rain = 0
KBY1 181815Z 27024G31KT 16/01 A2964 RMK A01 T01630009  RH  035%=      5-min Rain = 0
KBY1 181816Z 26022G29KT 16/01 A2963 RMK A01 T01630009  RH  035%=      5-min Rain = 0
KBY1 181817Z 26021KT 16/01 A2963 RMK A01 T01630008  RH  035%=      5-min Rain = 0
KBY1 181818Z 26019G24KT 16/01 A2963 RMK A01 T01630008  RH  035%=      5-min Rain = 0
KBY1 181819Z 27020G25KT 17/01 A2963 RMK A01 T01650007  RH  034%=      5-min Rain = 0
KBY1 181820Z 27019KT 17/01 A2963 RMK A01 T01670007  RH  034%=      5-min Rain = 0
KBY1 181821Z 26016G22KT 17/01 A2963 RMK A01 T01680009  RH  034%=      5-min Rain = 0
KBY1 181822Z 27018G24KT 17/01 A2963 RMK A01 T01710008  RH  033%=      5-min Rain = 0
KBY1 181823Z 27019KT 17/00 A2962 RMK A01 T01730004  RH  032%=      5-min Rain = 0
KBY1 181824Z 27017KT 17/01 A2962 RMK A01 T01740007  RH  032%=      5-min Rain = 0
KBY1 181825Z 26017G23KT 18/01 A2962 RMK A01 T01780011  RH  032%=      5-min Rain = 0
KBY1 181826Z 27020G27KT 18/01 A2962 RMK A01 T01810005  RH  030%=      5-min Rain = 0
KBY1 181827Z 27019G24KT 18/00 A2962 RMK A01 T01770003  RH  031%=      5-min Rain = 0
KBY1 181828Z 26018KT 17/00 A2962 RMK A01 T01730003  RH  032%=      5-min Rain = 0
KBY1 181829Z 26014G19KT 17/01 A2962 RMK A01 T01720005  RH  032%=      5-min Rain = 0
KBY1 181830Z 26020KT 17/01 A2962 RMK A01 T01710005  RH  032%=      5-min Rain = 0
KBY1 181831Z 25020G26KT 17/00 A2962 RMK A01 T01680003  RH  033%=      5-min Rain = 0
KBY1 181832Z 26020G26KT 17/00 A2962 RMK A01 T01650002  RH  033%=      5-min Rain = 0
KBY1 181833Z 27021G26KT 16/00 A2962 RMK A01 T01630001  RH  033%=      5-min Rain = 0
KBY1 181834Z 27023KT 16/00 A2962 RMK A01 T01620001  RH  033%=      5-min Rain = 0
KBY1 181835Z 27020G25KT 16/00 A2962 RMK A01 T01610001  RH  034%=      5-min Rain = 0
KBY1 181836Z 26017KT 16/00 A2963 RMK A01 T01600001  RH  034%=      5-min Rain = 0
KBY1 181837Z 26020G26KT 16/00 A2962 RMK A01 T01600000  RH  034%=      5-min Rain = 0
KBY1 181838Z 26018KT 16/00 A2962 RMK A01 T016000-0  RH  034%=      5-min Rain = 0
KBY1 181839Z 26017KT 16/00 A2962 RMK A01 T01600001  RH  034%=      5-min Rain = 0
KBY1 181840Z 27020KT 16/00 A2962 RMK A01 T01620001  RH  033%=      5-min Rain = 0
KBY1 181841Z 27019KT 16/00 A2962 RMK A01 T01620001  RH  033%=      5-min Rain = 0
KBY1 181842Z 27018KT 16/00 A2962 RMK A01 T01620000  RH  033%=      5-min Rain = 0
KBY1 181843Z 27014G19KT 16/00 A2962 RMK A01 T01630002  RH  033%=      5-min Rain = 0
KBY1 181844Z 27012G17KT 17/00 A2962 RMK A01 T01660003  RH  033%=      5-min Rain = 0
KBY1 181845Z 26011KT 17/00 A2962 RMK A01 T01670003  RH  033%=      5-min Rain = 0
KBY1 181846Z 27011KT 17/00 A2962 RMK A01 T01700003  RH  032%=      5-min Rain = 0
KBY1 181847Z 26014KT 17/00 A2961 RMK A01 T01740003  RH  031%=      5-min Rain = 0
KBY1 181848Z 27017G22KT 18/00 A2961 RMK A01 T01760001  RH  031%=      5-min Rain = 0
KBY1 181849Z 27014KT 18/M01 A2961 RMK A01 T01751005  RH  029%=      5-min Rain = 0
KBY1 181850Z 27013G18KT 17/M01 A2961 RMK A01 T01741005  RH  030%=      5-min Rain = 0
KBY1 181851Z 27016KT 18/M00 A2961 RMK A01 T01751003  RH  030%=      5-min Rain = 0
KBY1 181852Z 27012G18KT 18/M00 A2961 RMK A01 T01751002  RH  030%=      5-min Rain = 0
KBY1 181853Z 27010G21KT 18/M00 A2961 RMK A01 T01751002  RH  030%=      5-min Rain = 0
KBY1 181854Z 29014KT 18/M00 A2961 RMK A01 T01771003  RH  029%=      5-min Rain = 0
KBY1 181855Z 28016KT 18/M01 A2961 RMK A01 T01781007  RH  029%=      5-min Rain = 0
KBY1 181856Z 26016KT 18/M01 A296 RMK A01 T01771005  RH  029%=      5-min Rain = 0
KBY1 181857Z 26018G27KT 18/M00 A296 RMK A01 T01771003  RH  030%=      5-min Rain = 0
KBY1 181858Z 25017G24KT 17/M00 A296 RMK A01 T01741003  RH  030%=      5-min Rain = 0
KBY1 181859Z 25019G24KT 17/M00 A296 RMK A01 T01721004  RH  030%=      5-min Rain = 0
KBY1 181900Z 26015G22KT 17/M01 A296 RMK A01 T01711005  RH  030%=      5-min Rain = 0
KBY1 181901Z 26013KT 17/M00 A296 RMK A01 T01741001  RH  030%=      5-min Rain = 0
KBY1 181902Z 27018G25KT 18/M00 A296 RMK A01 T01781001  RH  030%=      5-min Rain = 0
KBY1 181903Z 26020G27KT 18/M01 A296 RMK A01 T01791005  RH  029%=      5-min Rain = 0
KBY1 181904Z 27019G25KT 18/M01 A2959 RMK A01 T01781007  RH  029%=      5-min Rain = 0
KBY1 181905Z 27018G28KT 18/M01 A2959 RMK A01 T01781007  RH  029%=      5-min Rain = 0
KBY1 181906Z 27019KT 18/M01 A2959 RMK A01 T01781008  RH  028%=      5-min Rain = 0
KBY1 181907Z 27016G22KT 18/M01 A296 RMK A01 T01791006  RH  029%=      5-min Rain = 0
KBY1 181908Z 26017KT 18/M01 A296 RMK A01 T01801007  RH  028%=      5-min Rain = 0
KBY1 181909Z 27020KT 18/M01 A296 RMK A01 T01801012  RH  027%=      5-min Rain = 0
KBY1 181910Z 27017G22KT 18/M01 A296 RMK A01 T01791012  RH  027%=      5-min Rain = 0
KBY1 181911Z 27018G23KT 18/M01 A296 RMK A01 T01781010  RH  028%=      5-min Rain = 0
KBY1 181912Z 25020G25KT 18/M01 A2959 RMK A01 T01781011  RH  028%=      5-min Rain = 0
KBY1 181913Z 26019KT 18/M01 A296 RMK A01 T01781010  RH  028%=      5-min Rain = 0
KBY1 181914Z 26019G24KT 18/M01 A296 RMK A01 T01801011  RH  027%=      5-min Rain = 0
KBY1 181915Z 26013KT 18/M01 A296 RMK A01 T01801010  RH  028%=      5-min Rain = 0
KBY1 181916Z 26014G20KT 18/M01 A296 RMK A01 T01821008  RH  028%=      5-min Rain = 0
KBY1 181917Z 26016KT 18/M01 A2959 RMK A01 T01841009  RH  027%=      5-min Rain = 0
KBY1 181918Z 27018KT 18/M01 A2959 RMK A01 T01841010  RH  027%=      5-min Rain = 0
KBY1 181919Z 26012G18KT 18/M01 A2959 RMK A01 T01831011  RH  027%=      5-min Rain = 0
KBY1 181920Z 26018G24KT 19/M01 A2959 RMK A01 T01851010  RH  027%=      5-min Rain = 0
KBY1 181921Z 25019KT 19/M02 A2959 RMK A01 T01861015  RH  026%=      5-min Rain = 0
KBY1 181922Z 25019G24KT 19/M02 A2959 RMK A01 T01851017  RH  025%=      5-min Rain = 0
KBY1 181923Z 26018KT 19/M02 A2959 RMK A01 T01851019  RH  025%=      5-min Rain = 0
KBY1 181924Z 27015KT 19/M02 A2959 RMK A01 T01861018  RH  025%=      5-min Rain = 0
KBY1 181925Z 27019KT 19/M02 A2959 RMK A01 T01881017  RH  025%=      5-min Rain = 0
KBY1 181926Z 27019G24KT 19/M02 A2959 RMK A01 T01891021  RH  024%=      5-min Rain = 0
KBY1 181927Z 28017KT 19/M02 A2959 RMK A01 T01881022  RH  024%=      5-min Rain = 0
KBY1 181928Z 27017G22KT 19/M02 A2959 RMK A01 T01861022  RH  024%=      5-min Rain = 0
KBY1 181929Z 26013KT 19/M02 A2959 RMK A01 T01851020  RH  025%=      5-min Rain = 0
KBY1 181930Z 27013KT 19/M02 A2959 RMK A01 T01881016  RH  025%=      5-min Rain = 0
KBY1 181931Z 27012KT 19/M02 A2959 RMK A01 T01911015  RH  025%=      5-min Rain = 0
KBY1 181932Z 26015G21KT 19/M02 A2959 RMK A01 T01931018  RH  024%=      5-min Rain = 0
KBY1 181933Z 26016KT 19/M02 A2959 RMK A01 T01931020  RH  024%=      5-min Rain = 0
KBY1 181934Z 27015KT 19/M02 A2959 RMK A01 T01941020  RH  023%=      5-min Rain = 0
KBY1 181935Z 27016G23KT 20/M02 A2959 RMK A01 T01951023  RH  023%=      5-min Rain = 0
KBY1 181936Z 26015G21KT 20/M02 A2959 RMK A01 T01961021  RH  023%=      5-min Rain = 0
KBY1 181937Z 26015G20KT 20/M02 A2958 RMK A01 T01981022  RH  023%=      5-min Rain = 0
KBY1 181938Z 26017KT 20/M02 A2958 RMK A01 T01981021  RH  023%=      5-min Rain = 0
KBY1 181939Z 26016G21KT 20/M02 A2958 RMK A01 T01961021  RH  023%=      5-min Rain = 0
KBY1 181940Z 26011G16KT 19/M02 A2958 RMK A01 T01941021  RH  023%=      5-min Rain = 0
KBY1 181941Z 27010KT 19/M02 A2958 RMK A01 T01931019  RH  024%=      5-min Rain = 0
KBY1 181942Z 26011KT 19/M02 A2958 RMK A01 T01931019  RH  024%=      5-min Rain = 0
KBY1 181943Z 27014KT 20/M02 A2958 RMK A01 T01951020  RH  023%=      5-min Rain = 0
KBY1 181944Z 26014KT 20/M03 A2958 RMK A01 T01961029  RH  022%=      5-min Rain = 0
KBY1 181945Z 26014KT 19/M03 A2958 RMK A01 T01941030  RH  022%=      5-min Rain = 0
KBY1 181946Z 27011KT 19/M03 A2958 RMK A01 T01921030  RH  022%=      5-min Rain = 0
KBY1 181947Z 28010G15KT 19/M03 A2958 RMK A01 T01901033  RH  022%=      5-min Rain = 0
KBY1 181948Z 29011KT 19/M04 A2958 RMK A01 T01901037  RH  021%=      5-min Rain = 0
KBY1 181949Z 30006G11KT 19/M04 A2958 RMK A01 T01901040  RH  021%=      5-min Rain = 0
KBY1 181950Z 32011G19KT 19/M04 A2958 RMK A01 T01931035  RH  021%=      5-min Rain = 0
KBY1 181951Z 30015G20KT 19/M04 A2958 RMK A01 T01941038  RH  020%=      5-min Rain = 0
KBY1 181952Z 32016G21KT 19/M04 A2958 RMK A01 T01921040  RH  020%=      5-min Rain = 0
KBY1 181953Z 32020KT 19/M04 A2958 RMK A01 T01881039  RH  021%=      5-min Rain = 0
KBY1 181954Z 31017KT 19/M04 A2958 RMK A01 T01851042  RH  021%=      5-min Rain = 0
KBY1 181955Z 32015G20KT 18/M04 A2958 RMK A01 T01841040  RH  021%=      5-min Rain = 0
KBY1 181956Z 32012KT 18/M04 A2958 RMK A01 T01841035  RH  022%=      5-min Rain = 0
KBY1 181957Z 33011KT 18/M03 A2958 RMK A01 T01841031  RH  023%=      5-min Rain = 0
KBY1 181958Z 34021KT 19/M03 A2958 RMK A01 T01871031  RH  023%=      5-min Rain = 0
KBY1 181959Z 34016G21KT 19/M03 A2958 RMK A01 T01871032  RH  022%=      5-min Rain = 0
KBY1 182000Z 33017KT 19/M03 A2957 RMK A01 T01871032  RH  022%=      5-min Rain = 0
KBY1 182001Z 33013G19KT 19/M03 A2958 RMK A01 T01861032  RH  022%=      5-min Rain = 0
KBY1 182002Z 33016G22KT 19/M03 A2958 RMK A01 T01851033  RH  023%=      5-min Rain = 0
KBY1 182003Z 33012G17KT 18/M03 A2958 RMK A01 T01831034  RH  023%=      5-min Rain = 0
KBY1 182004Z 33016G21KT 18/M03 A2957 RMK A01 T01811034  RH  023%=      5-min Rain = 0
KBY1 182005Z 34013KT 18/M04 A2957 RMK A01 T01801035  RH  023%=      5-min Rain = 0
KBY1 182006Z 33014G21KT 18/M03 A2958 RMK A01 T01781034  RH  023%=      5-min Rain = 0
KBY1 182007Z 33015G21KT 18/M03 A2957 RMK A01 T01771033  RH  024%=      5-min Rain = 0
KBY1 182008Z 33012KT 18/M03 A2958 RMK A01 T01761031  RH  024%=      5-min Rain = 0
KBY1 182009Z 33012KT 18/M03 A2957 RMK A01 T01751029  RH  025%=      5-min Rain = 0
KBY1 182010Z 33012G17KT 17/M03 A2957 RMK A01 T01741030  RH  025%=      5-min Rain = 0
KBY1 182011Z 32011KT 17/M03 A2957 RMK A01 T01731030  RH  025%=      5-min Rain = 0
KBY1 182012Z 32011KT 17/M03 A2957 RMK A01 T01731030  RH  025%=      5-min Rain = 0
KBY1 182013Z 33011KT 17/M03 A2957 RMK A01 T01731030  RH  025%=      5-min Rain = 0
KBY1 182014Z 32010KT 17/M03 A2957 RMK A01 T01721030  RH  025%=      5-min Rain = 0
KBY1 182015Z 32013KT 17/M03 A2957 RMK A01 T01721030  RH  025%=      5-min Rain = 0
KBY1 182016Z 32013G18KT 17/M03 A2957 RMK A01 T01721030  RH  025%=      5-min Rain = 0
KBY1 182017Z 32013G18KT 17/M03 A2958 RMK A01 T01721028  RH  025%=      5-min Rain = 0
KBY1 182018Z 32015KT 17/M03 A2958 RMK A01 T01721026  RH  026%=      5-min Rain = 0
KBY1 182019Z 32015KT 17/M03 A2958 RMK A01 T01711026  RH  026%=      5-min Rain = 0
KBY1 182020Z 32012G17KT 17/M03 A2958 RMK A01 T01711027  RH  026%=      5-min Rain = 0
KBY1 182021Z 31012KT 17/M03 A2958 RMK A01 T01711027  RH  026%=      5-min Rain = 0
KBY1 182022Z 31011G16KT 17/M03 A2958 RMK A01 T01711027  RH  026%=      5-min Rain = 0
KBY1 182023Z 31010KT 17/M02 A2959 RMK A01 T01701021  RH  027%=      5-min Rain = 0
KBY1 182024Z 32011KT 17/M01 A2959 RMK A01 T01691010  RH  030%=      5-min Rain = 0
KBY1 182025Z 31007KT 17/M00 A2959 RMK A01 T01661002  RH  032%=      5-min Rain = 0
KBY1 182026Z 32006KT 16/00 A2959 RMK A01 T01630001  RH  033%=      5-min Rain = 0
KBY1 182027Z 32005KT 16/01 A2959 RMK A01 T01600007  RH  035%=      5-min Rain = 0
KBY1 182028Z 32003KT 16/02 A2959 RMK A01 T01580017  RH  038%=      5-min Rain = 0
KBY1 182029Z 33005KT 16/01 A2959 RMK A01 T01560012  RH  037%=      5-min Rain = 0
KBY1 182030Z 32005KT 16/02 A2959 RMK A01 T01550019  RH  040%=      5-min Rain = 0
KBY1 182031Z 32006KT 15/01 A2959 RMK A01 T01540014  RH  039%=      5-min Rain = 0
KBY1 182032Z 33007KT 15/02 A2959 RMK A01 T01540018  RH  040%=      5-min Rain = 0
KBY1 182033Z 32008KT 15/02 A2959 RMK A01 T01530016  RH  040%=      5-min Rain = 0
KBY1 182034Z 31007KT 15/02 A2959 RMK A01 T01530016  RH  040%=      5-min Rain = 0
KBY1 182035Z 31006KT 15/02 A2958 RMK A01 T01530016  RH  039%=      5-min Rain = 0
KBY1 182036Z 31004KT 15/02 A2958 RMK A01 T01530022  RH  041%=      5-min Rain = 0
KBY1 182037Z 32002KT 15/01 A2958 RMK A01 T01530014  RH  039%=      5-min Rain = 0
KBY1 182038Z 00002KT 15/03 A2958 RMK A01 T01530025  RH  042%=      5-min Rain = 0.01
KBY1 182039Z 36002KT 15/03 A2958 RMK A01 T01520032  RH  045%=      5-min Rain = 0
KBY1 182040Z 34004KT 15/04 A2958 RMK A01 T01520036  RH  046%=      5-min Rain = 0
KBY1 182041Z 34004KT 15/03 A2958 RMK A01 T01520034  RH  045%=      5-min Rain = 0
KBY1 182042Z 34004G9KT 15/03 A2958 RMK A01 T01520031  RH  044%=      5-min Rain = 0
KBY1 182043Z 34005KT 15/02 A2958 RMK A01 T01540021  RH  041%=      5-min Rain = 0
KBY1 182044Z 34004KT 16/02 A2958 RMK A01 T01560022  RH  041%=      5-min Rain = 0
KBY1 182045Z 33006KT 16/02 A2958 RMK A01 T01580021  RH  040%=      5-min Rain = 0
KBY1 182046Z 34006KT 16/02 A2958 RMK A01 T01590019  RH  039%=      5-min Rain = 0
KBY1 182047Z 34005KT 16/02 A2958 RMK A01 T01610022  RH  039%=      5-min Rain = 0
KBY1 182048Z 34008KT 16/02 A2958 RMK A01 T01620017  RH  038%=      5-min Rain = 0
KBY1 182049Z 35007KT 16/01 A2958 RMK A01 T01630014  RH  037%=      5-min Rain = 0
KBY1 182050Z 36008KT 16/01 A2958 RMK A01 T01640014  RH  036%=      5-min Rain = 0
KBY1 182051Z 35010KT 17/01 A2958 RMK A01 T01650007  RH  034%=      5-min Rain = 0
KBY1 182052Z 34011KT 17/00 A2958 RMK A01 T01660003  RH  033%=      5-min Rain = 0
KBY1 182053Z 36013G19KT 17/00 A2958 RMK A01 T01660002  RH  033%=      5-min Rain = 0
KBY1 182054Z 01012KT 17/00 A2958 RMK A01 T01650000  RH  033%=      5-min Rain = 0
KBY1 182055Z 00012KT 17/M00 A2958 RMK A01 T01651002  RH  032%=      5-min Rain = 0
KBY1 182056Z 36010KT 17/00 A2958 RMK A01 T01650000  RH  033%=      5-min Rain = 0
KBY1 182057Z 36010KT 17/M00 A2958 RMK A01 T01651004  RH  032%=      5-min Rain = 0
KBY1 182058Z 00011KT 16/M00 A2958 RMK A01 T01641002  RH  032%=      5-min Rain = 0
KBY1 182059Z 01011KT 16/M00 A2958 RMK A01 T01641003  RH  032%=      5-min Rain = 0
KBY1 182100Z 00009KT 17/M01 A2958 RMK A01 T01651005  RH  032%=      5-min Rain = 0
KBY1 182101Z 00007KT 17/M00 A2958 RMK A01 T01651003  RH  032%=      5-min Rain = 0
KBY1 182102Z 01009KT 17/M00 A2958 RMK A01 T01661003  RH  032%=      5-min Rain = 0
KBY1 182103Z 00008KT 17/M00 A2958 RMK A01 T01651004  RH  032%=      5-min Rain = 0
KBY1 182104Z 36007KT 17/M00 A2958 RMK A01 T01651002  RH  032%=      5-min Rain = 0
KBY1 182105Z 35008KT 17/M00 A2959 RMK A01 T01651001  RH  032%=      5-min Rain = 0
KBY1 182106Z 35009KT 17/M01 A2959 RMK A01 T01651006  RH  031%=      5-min Rain = 0
KBY1 182107Z 00008KT 17/M00 A2959 RMK A01 T01651003  RH  032%=      5-min Rain = 0
KBY1 182108Z 00010KT 17/M01 A2959 RMK A01 T01651006  RH  031%=      5-min Rain = 0
KBY1 182109Z 00009KT 17/M01 A2959 RMK A01 T01651007  RH  031%=      5-min Rain = 0
KBY1 182110Z 01010KT 16/M01 A2959 RMK A01 T01641007  RH  031%=      5-min Rain = 0
KBY1 182111Z 00011KT 16/M01 A2959 RMK A01 T01641007  RH  031%=      5-min Rain = 0
KBY1 182112Z 01010KT 16/M01 A2959 RMK A01 T01641007  RH  031%=      5-min Rain = 0
KBY1 182113Z 01010KT 16/M01 A2959 RMK A01 T01641006  RH  031%=      5-min Rain = 0
KBY1 182114Z 00011KT 16/M01 A2959 RMK A01 T01641007  RH  031%=      5-min Rain = 0
KBY1 182115Z 01011KT 16/M01 A2959 RMK A01 T01631010  RH  031%=      5-min Rain = 0
KBY1 182116Z 01010KT 16/M01 A2959 RMK A01 T01631010  RH  031%=      5-min Rain = 0
KBY1 182117Z 01008KT 16/M01 A296 RMK A01 T01631009  RH  031%=      5-min Rain = 0
KBY1 182118Z 00008KT 16/M01 A296 RMK A01 T01631008  RH  031%=      5-min Rain = 0
KBY1 182119Z 00009KT 16/M01 A296 RMK A01 T01631012  RH  030%=      5-min Rain = 0
KBY1 182120Z 35008KT 16/M01 A296 RMK A01 T01631009  RH  031%=      5-min Rain = 0
KBY1 182121Z 35006KT 16/M01 A296 RMK A01 T01631009  RH  031%=      5-min Rain = 0
KBY1 182122Z 35007KT 16/M01 A296 RMK A01 T01631011  RH  030%=      5-min Rain = 0
KBY1 182123Z 34007KT 16/M01 A296 RMK A01 T01631010  RH  031%=      5-min Rain = 0
KBY1 182124Z 34008KT 16/M01 A296 RMK A01 T01621010  RH  031%=      5-min Rain = 0
KBY1 182125Z 34008KT 16/M01 A296 RMK A01 T01621011  RH  031%=      5-min Rain = 0
KBY1 182126Z 34006KT 16/M01 A296 RMK A01 T01621012  RH  030%=      5-min Rain = 0
KBY1 182127Z 35006KT 16/M01 A296 RMK A01 T01621013  RH  030%=      5-min Rain = 0
KBY1 182128Z 35006KT 16/M01 A296 RMK A01 T01621010  RH  031%=      5-min Rain = 0
KBY1 182129Z 36007KT 16/M01 A296 RMK A01 T01611012  RH  031%=      5-min Rain = 0
KBY1 182130Z 00006KT 16/M01 A296 RMK A01 T01611012  RH  031%=      5-min Rain = 0
KBY1 182131Z 01006KT 16/M01 A296 RMK A01 T01611011  RH  031%=      5-min Rain = 0
KBY1 182132Z 02006KT 16/M01 A296 RMK A01 T01611010  RH  031%=      5-min Rain = 0
KBY1 182133Z 02007KT 16/M01 A296 RMK A01 T01601008  RH  032%=      5-min Rain = 0
KBY1 182134Z 02007KT 16/M01 A296 RMK A01 T01601011  RH  031%=      5-min Rain = 0
KBY1 182135Z 02007KT 16/M01 A296 RMK A01 T01601010  RH  031%=      5-min Rain = 0
KBY1 182136Z 01008KT 16/M01 A296 RMK A01 T01601012  RH  031%=      5-min Rain = 0
KBY1 182137Z 03006KT 16/M01 A296 RMK A01 T01601009  RH  032%=      5-min Rain = 0
KBY1 182138Z 02009KT 16/M01 A296 RMK A01 T01601009  RH  032%=      5-min Rain = 0
KBY1 182139Z 02009G14KT 16/M01 A296 RMK A01 T01601008  RH  032%=      5-min Rain = 0
KBY1 182140Z 02012G18KT 16/M01 A296 RMK A01 T01591010  RH  031%=      5-min Rain = 0
KBY1 182141Z 35017KT 16/M01 A296 RMK A01 T01591011  RH  031%=      5-min Rain = 0
KBY1 182142Z 00014KT 16/M01 A296 RMK A01 T01601012  RH  031%=      5-min Rain = 0
KBY1 182143Z 00013KT 16/M01 A2961 RMK A01 T01591012  RH  031%=      5-min Rain = 0
KBY1 182144Z 01013KT 16/M01 A2961 RMK A01 T01591012  RH  031%=      5-min Rain = 0
KBY1 182145Z 01014KT 16/M01 A2961 RMK A01 T01591011  RH  031%=      5-min Rain = 0
KBY1 182146Z 01014G19KT 16/M01 A2961 RMK A01 T01581010  RH  032%=      5-min Rain = 0
KBY1 182147Z 01016KT 16/M01 A2961 RMK A01 T01571011  RH  032%=      5-min Rain = 0
KBY1 182148Z 02015KT 16/M01 A2961 RMK A01 T01571011  RH  032%=      5-min Rain = 0
KBY1 182149Z 00018G27KT 16/M01 A2962 RMK A01 T01561009  RH  032%=      5-min Rain = 0
KBY1 182150Z 01018KT 16/M01 A2962 RMK A01 T01551008  RH  033%=      5-min Rain = 0
KBY1 182151Z 00018G23KT 15/M01 A2962 RMK A01 T01531007  RH  033%=      5-min Rain = 0
KBY1 182152Z 02017G22KT 15/M01 A2962 RMK A01 T01531005  RH  034%=      5-min Rain = 0
KBY1 182153Z 02016G23KT 15/M00 A2962 RMK A01 T01511003  RH  035%=      5-min Rain = 0
KBY1 182154Z 02018KT 15/M00 A2962 RMK A01 T01501002  RH  035%=      5-min Rain = 0
KBY1 182155Z 02017KT 15/M00 A2962 RMK A01 T01491002  RH  036%=      5-min Rain = 0
KBY1 182156Z 01017KT 15/M00 A2962 RMK A01 T01491001  RH  036%=      5-min Rain = 0
KBY1 182157Z 01023G29KT 15/00 A2962 RMK A01 T014700-0  RH  036%=      5-min Rain = 0
KBY1 182158Z 01025G32KT 14/M00 A2963 RMK A01 T01431001  RH  037%=      5-min Rain = 0
KBY1 182159Z 01019G26KT 14/M00 A2963 RMK A01 T01401001  RH  038%=      5-min Rain = 0
KBY1 182200Z 02020G26KT 14/00 A2963 RMK A01 T01390001  RH  039%=      5-min Rain = 0
KBY1 182201Z 01019KT 14/00 A2963 RMK A01 T01380000  RH  039%=      5-min Rain = 0
KBY1 182202Z 02020KT 14/00 A2963 RMK A01 T01360001  RH  040%=      5-min Rain = 0
KBY1 182203Z 01018G24KT 14/01 A2963 RMK A01 T01350005  RH  041%=      5-min Rain = 0
KBY1 182204Z 01020G25KT 13/01 A2963 RMK A01 T01330007  RH  042%=      5-min Rain = 0
KBY1 182205Z 00023G29KT 13/01 A2964 RMK A01 T01300011  RH  044%=      5-min Rain = 0
KBY1 182206Z 01022G27KT 13/01 A2963 RMK A01 T01260010  RH  045%=      5-min Rain = 0
KBY1 182207Z 00021G28KT 12/01 A2964 RMK A01 T01230012  RH  047%=      5-min Rain = 0
KBY1 182208Z 01026G31KT 12/01 A2964 RMK A01 T01210011  RH  047%=      5-min Rain = 0
KBY1 182209Z 01027G33KT 12/01 A2964 RMK A01 T01200006  RH  046%=      5-min Rain = 0
KBY1 182210Z 01028G37KT 12/01 A2964 RMK A01 T01190005  RH  045%=      5-min Rain = 0
KBY1 182211Z 00026G31KT 12/00 A2964 RMK A01 T01190002  RH  045%=      5-min Rain = 0
KBY1 182212Z 00023G31KT 12/00 A2965 RMK A01 T01190001  RH  044%=      5-min Rain = 0
KBY1 182213Z 00020G25KT 12/00 A2965 RMK A01 T01170002  RH  045%=      5-min Rain = 0
KBY1 182214Z 01022G28KT 12/00 A2965 RMK A01 T01150000  RH  045%=      5-min Rain = 0
KBY1 182215Z 01025KT 11/M00 A2965 RMK A01 T01141001  RH  045%=      5-min Rain = 0
KBY1 182216Z 01025G33KT 11/M01 A2965 RMK A01 T01131005  RH  044%=      5-min Rain = 0
KBY1 182217Z 02023G29KT 11/M01 A2966 RMK A01 T01121006  RH  044%=      5-min Rain = 0
KBY1 182218Z 02031G38KT 11/M01 A2966 RMK A01 T01111005  RH  045%=      5-min Rain = 0
KBY1 182219Z 01025G36KT 11/M01 A2966 RMK A01 T01111005  RH  045%=      5-min Rain = 0
KBY1 182220Z 02021G26KT 11/M00 A2966 RMK A01 T01101003  RH  045%=      5-min Rain = 0
KBY1 182221Z 01023G30KT 11/M00 A2967 RMK A01 T01091002  RH  046%=      5-min Rain = 0
KBY1 182222Z 01024G29KT 11/M00 A2967 RMK A01 T01091003  RH  046%=      5-min Rain = 0
KBY1 182223Z 02025G34KT 11/M00 A2967 RMK A01 T01081003  RH  046%=      5-min Rain = 0
KBY1 182224Z 02023G30KT 11/M00 A2967 RMK A01 T01071003  RH  047%=      5-min Rain = 0
KBY1 182225Z 02024KT 11/M00 A2967 RMK A01 T01071003  RH  047%=      5-min Rain = 0
KBY1 182226Z 02020G27KT 11/M00 A2967 RMK A01 T01071002  RH  047%=      5-min Rain = 0
KBY1 182227Z 01022G31KT 11/M00 A2967 RMK A01 T01061002  RH  047%=      5-min Rain = 0
KBY1 182228Z 01023G29KT 11/M00 A2968 RMK A01 T01061003  RH  047%=      5-min Rain = 0
KBY1 182229Z 01021G28KT 11/M00 A2968 RMK A01 T01061004  RH  047%=      5-min Rain = 0
KBY1 182230Z 02020G28KT 11/M00 A2968 RMK A01 T01061003  RH  047%=      5-min Rain = 0
KBY1 182231Z 01020G25KT 11/M00 A2968 RMK A01 T01061002  RH  047%=      5-min Rain = 0
KBY1 182232Z 01022KT 11/M00 A2968 RMK A01 T01061003  RH  047%=      5-min Rain = 0
KBY1 182233Z 02020G27KT 11/M00 A2969 RMK A01 T01061003  RH  047%=      5-min Rain = 0
KBY1 182234Z 01025G31KT 11/M00 A2969 RMK A01 T01051003  RH  047%=      5-min Rain = 0
KBY1 182235Z 01021G28KT 11/M00 A2969 RMK A01 T01051003  RH  047%=      5-min Rain = 0
KBY1 182236Z 02021G26KT 11/M00 A2969 RMK A01 T01051002  RH  047%=      5-min Rain = 0
KBY1 182237Z 02017G22KT 11/M00 A2969 RMK A01 T01051002  RH  048%=      5-min Rain = 0
KBY1 182238Z 01015KT 10/M00 A2969 RMK A01 T01041001  RH  048%=      5-min Rain = 0
KBY1 182239Z 02017G24KT 10/M00 A2969 RMK A01 T01031001  RH  049%=      5-min Rain = 0
KBY1 182240Z 01020G27KT 10/M00 A297 RMK A01 T01031001  RH  049%=      5-min Rain = 0
KBY1 182241Z 02019G26KT 10/M00 A297 RMK A01 T01031001  RH  049%=      5-min Rain = 0
KBY1 182242Z 01019KT 10/M00 A297 RMK A01 T01021001  RH  049%=      5-min Rain = 0
KBY1 182243Z 00017G24KT 10/00 A297 RMK A01 T010200-0  RH  049%=      5-min Rain = 0
KBY1 182244Z 01015KT 10/00 A297 RMK A01 T010200-0  RH  049%=      5-min Rain = 0
KBY1 182245Z 01017G23KT 10/00 A297 RMK A01 T01020000  RH  049%=      5-min Rain = 0
KBY1 182246Z 01024G29KT 10/M00 A297 RMK A01 T01011001  RH  049%=      5-min Rain = 0
KBY1 182247Z 00021KT 10/M00 A297 RMK A01 T01011002  RH  049%=      5-min Rain = 0
KBY1 182248Z 00022G33KT 10/M00 A297 RMK A01 T01011001  RH  049%=      5-min Rain = 0
KBY1 182249Z 02019G25KT 10/M00 A297 RMK A01 T01011001  RH  049%=      5-min Rain = 0
KBY1 182250Z 01020G26KT 10/M00 A2971 RMK A01 T01011001  RH  049%=      5-min Rain = 0
KBY1 182251Z 01020G28KT 10/M00 A2971 RMK A01 T01011001  RH  049%=      5-min Rain = 0
KBY1 182252Z 01025G31KT 10/M00 A2971 RMK A01 T01011001  RH  049%=      5-min Rain = 0
KBY1 182253Z 01027G33KT 10/00 A2971 RMK A01 T010100-0  RH  049%=      5-min Rain = 0
KBY1 182254Z 02026G33KT 10/M00 A2971 RMK A01 T01011001  RH  049%=      5-min Rain = 0
KBY1 182255Z 01023G28KT 10/00 A2971 RMK A01 T010000-0  RH  050%=      5-min Rain = 0
KBY1 182256Z 02019G24KT 10/00 A2971 RMK A01 T010000-0  RH  050%=      5-min Rain = 0
KBY1 182257Z 01021KT 10/00 A2971 RMK A01 T00990000  RH  050%=      5-min Rain = 0
KBY1 182258Z 02022G27KT 10/00 A2971 RMK A01 T00990000  RH  050%=      5-min Rain = 0
KBY1 182259Z 01025G31KT 10/00 A2971 RMK A01 T00990001  RH  050%=      5-min Rain = 0
KBY1 182300Z 02023KT 10/00 A2971 RMK A01 T00980000  RH  050%=      5-min Rain = 0
KBY1 182301Z 02021KT 10/00 A2972 RMK A01 T00980000  RH  051%=      5-min Rain = 0
KBY1 182302Z 01019G26KT 10/00 A2972 RMK A01 T00980001  RH  051%=      5-min Rain = 0
KBY1 182303Z 01019KT 10/00 A2972 RMK A01 T00980001  RH  051%=      5-min Rain = 0
KBY1 182304Z 02021G27KT 10/00 A2972 RMK A01 T00970001  RH  051%=      5-min Rain = 0
KBY1 182305Z 01019G29KT 10/00 A2972 RMK A01 T00970001  RH  051%=      5-min Rain = 0
KBY1 182306Z 01022G27KT 10/00 A2972 RMK A01 T00970001  RH  051%=      5-min Rain = 0
KBY1 182307Z 01023G28KT 10/00 A2972 RMK A01 T00960001  RH  052%=      5-min Rain = 0
KBY1 182308Z 01023G29KT 10/00 A2973 RMK A01 T00950001  RH  052%=      5-min Rain = 0
KBY1 182309Z 02025G30KT 09/00 A2973 RMK A01 T00940000  RH  052%=      5-min Rain = 0
KBY1 182310Z 01020G25KT 09/00 A2973 RMK A01 T00930000  RH  052%=      5-min Rain = 0
KBY1 182311Z 02024G31KT 09/00 A2973 RMK A01 T00920000  RH  053%=      5-min Rain = 0
KBY1 182312Z 01020KT 09/00 A2973 RMK A01 T00910000  RH  053%=      5-min Rain = 0
KBY1 182313Z 02020G25KT 09/00 A2974 RMK A01 T00900000  RH  053%=      5-min Rain = 0
KBY1 182314Z 02026G32KT 09/00 A2974 RMK A01 T00900000  RH  053%=      5-min Rain = 0
KBY1 182315Z 01022G30KT 09/00 A2974 RMK A01 T00880000  RH  054%=      5-min Rain = 0
KBY1 182316Z 01023G31KT 09/00 A2974 RMK A01 T00880000  RH  054%=      5-min Rain = 0
KBY1 182317Z 01020G29KT 09/00 A2975 RMK A01 T00870001  RH  055%=      5-min Rain = 0
KBY1 182318Z 01020G26KT 09/00 A2974 RMK A01 T00860002  RH  055%=      5-min Rain = 0
KBY1 182319Z 01014KT 09/00 A2975 RMK A01 T00860002  RH  055%=      5-min Rain = 0
KBY1 182320Z 01016G21KT 09/00 A2975 RMK A01 T00860002  RH  055%=      5-min Rain = 0
KBY1 182321Z 01018KT 09/00 A2975 RMK A01 T00850002  RH  056%=      5-min Rain = 0
KBY1 182322Z 01017G23KT 08/00 A2975 RMK A01 T00840002  RH  056%=      5-min Rain = 0
KBY1 182323Z 01020KT 08/00 A2975 RMK A01 T00840002  RH  056%=      5-min Rain = 0
KBY1 182324Z 01021G28KT 08/00 A2975 RMK A01 T00830002  RH  057%=      5-min Rain = 0
KBY1 182325Z 01018G25KT 08/00 A2975 RMK A01 T00830002  RH  057%=      5-min Rain = 0
KBY1 182326Z 01019G30KT 08/00 A2976 RMK A01 T00820003  RH  057%=      5-min Rain = 0
KBY1 182327Z 01021G26KT 08/00 A2976 RMK A01 T00820003  RH  058%=      5-min Rain = 0
KBY1 182328Z 02021G33KT 08/00 A2976 RMK A01 T00810003  RH  058%=      5-min Rain = 0
KBY1 182329Z 01022KT 08/00 A2976 RMK A01 T00810003  RH  058%=      5-min Rain = 0
KBY1 182330Z 01020G25KT 08/00 A2976 RMK A01 T00800003  RH  058%=      5-min Rain = 0
KBY1 182331Z 01022G27KT 08/00 A2976 RMK A01 T00800003  RH  058%=      5-min Rain = 0
KBY1 182332Z 01020G28KT 08/00 A2976 RMK A01 T00790004  RH  059%=      5-min Rain = 0
KBY1 182333Z 02018G26KT 08/00 A2976 RMK A01 T00790004  RH  059%=      5-min Rain = 0
KBY1 182334Z 01020G25KT 08/00 A2976 RMK A01 T00790004  RH  059%=      5-min Rain = 0
KBY1 182335Z 01019G24KT 08/00 A2977 RMK A01 T00780004  RH  059%=      5-min Rain = 0
KBY1 182336Z 01019G26KT 08/00 A2977 RMK A01 T00780004  RH  060%=      5-min Rain = 0
KBY1 182337Z 01024G30KT 08/01 A2977 RMK A01 T00780005  RH  060%=      5-min Rain = 0
KBY1 182338Z 01018G23KT 08/01 A2977 RMK A01 T00780005  RH  060%=      5-min Rain = 0
KBY1 182339Z 02022G29KT 08/00 A2977 RMK A01 T00770004  RH  060%=      5-min Rain = 0
KBY1 182340Z 01018KT 08/01 A2977 RMK A01 T00760005  RH  060%=      5-min Rain = 0
KBY1 182341Z 01017G22KT 08/01 A2977 RMK A01 T00760005  RH  061%=      5-min Rain = 0
KBY1 182342Z 01018G25KT 08/00 A2977 RMK A01 T00750004  RH  061%=      5-min Rain = 0
KBY1 182343Z 01022G30KT 08/01 A2977 RMK A01 T00750005  RH  061%=      5-min Rain = 0
KBY1 182344Z 02022G28KT 07/00 A2978 RMK A01 T00730004  RH  061%=      5-min Rain = 0
KBY1 182345Z 01022G29KT 07/00 A2978 RMK A01 T00730004  RH  062%=      5-min Rain = 0
KBY1 182346Z 01018G25KT 07/01 A2978 RMK A01 T00720005  RH  062%=      5-min Rain = 0
KBY1 182347Z 01021G27KT 07/01 A2978 RMK A01 T00720005  RH  062%=      5-min Rain = 0
KBY1 182348Z 01020G27KT 07/01 A2978 RMK A01 T00710005  RH  063%=      5-min Rain = 0
KBY1 182349Z 01015KT 07/01 A2978 RMK A01 T00710005  RH  063%=      5-min Rain = 0
KBY1 182350Z 00023G30KT 07/01 A2978 RMK A01 T00710005  RH  063%=      5-min Rain = 0
KBY1 182351Z 01020G25KT 07/01 A2978 RMK A01 T00710005  RH  063%=      5-min Rain = 0
KBY1 182352Z 01023G31KT 07/01 A2978 RMK A01 T00700005  RH  063%=      5-min Rain = 0
KBY1 182353Z 01021G26KT 07/01 A2978 RMK A01 T00700005  RH  063%=      5-min Rain = 0
KBY1 182354Z 01024G32KT 07/01 A2978 RMK A01 T00690005  RH  064%=      5-min Rain = 0
KBY1 182355Z 35019KT 07/01 A2978 RMK A01 T00690005  RH  064%=      5-min Rain = 0
KBY1 182356Z 01022G30KT 07/01 A2979 RMK A01 T00680006  RH  064%=      5-min Rain = 0
KBY1 182357Z 01024G31KT 07/01 A2979 RMK A01 T00680005  RH  064%=      5-min Rain = 0
KBY1 182358Z 01019G24KT 07/01 A2979 RMK A01 T00670005  RH  065%=      5-min Rain = 0
KBY1 182359Z 01022G28KT 07/01 A2979 RMK A01 T00670005  RH  065%=      5-min Rain = 0
KBY1 190000Z 01018G24KT 07/01 A2979 RMK A01 T00660005  RH  065%=      5-min Rain = 0
KBY1 190001Z 01020G34KT 07/01 A2979 RMK A01 T00650005  RH  065%=      5-min Rain = 0
KBY1 190002Z 00019G24KT 07/01 A298 RMK A01 T00650005  RH  066%=      5-min Rain = 0
KBY1 190003Z 00022G30KT 06/01 A298 RMK A01 T00640005  RH  066%=      5-min Rain = 0
KBY1 190004Z 01024G32KT 06/01 A298 RMK A01 T00630005  RH  066%=      5-min Rain = 0
KBY1 190005Z 01018G25KT 06/01 A298 RMK A01 T00620005  RH  067%=      5-min Rain = 0
KBY1 190006Z 36021G29KT 06/01 A298 RMK A01 T00620006  RH  068%=      5-min Rain = 0
KBY1 190007Z 35021G31KT 06/01 A298 RMK A01 T00610007  RH  068%=      5-min Rain = 0
KBY1 190008Z 00017G24KT 06/01 A2981 RMK A01 T00600007  RH  069%=      5-min Rain = 0
KBY1 190009Z 00019KT 06/01 A2981 RMK A01 T00590007  RH  069%=      5-min Rain = 0
KBY1 190010Z 01018G23KT 06/01 A2981 RMK A01 T00580006  RH  069%=      5-min Rain = 0
KBY1 190011Z 01018KT 06/01 A2981 RMK A01 T00580006  RH  069%=      5-min Rain = 0
KBY1 190012Z 00017G26KT 06/01 A2981 RMK A01 T00570006  RH  069%=      5-min Rain = 0
KBY1 190013Z 00016G25KT 06/01 A2981 RMK A01 T00570006  RH  070%=      5-min Rain = 0
KBY1 190014Z 01020G26KT 06/01 A2982 RMK A01 T00560006  RH  070%=      5-min Rain = 0
KBY1 190015Z 00020G27KT 06/01 A2982 RMK A01 T00560006  RH  070%=      5-min Rain = 0
KBY1 190016Z 01020G26KT 06/01 A2982 RMK A01 T00550005  RH  070%=      5-min Rain = 0
KBY1 190017Z 01015G21KT 05/01 A2982 RMK A01 T00540006  RH  071%=      5-min Rain = 0
KBY1 190018Z 01023KT 05/01 A2982 RMK A01 T00540006  RH  071%=      5-min Rain = 0
KBY1 190019Z 00019G24KT 05/01 A2982 RMK A01 T00530005  RH  071%=      5-min Rain = 0
KBY1 190020Z 00019KT 05/01 A2983 RMK A01 T00520005  RH  072%=      5-min Rain = 0
KBY1 190021Z 00020KT 05/01 A2983 RMK A01 T00510005  RH  072%=      5-min Rain = 0
KBY1 190022Z 00019G25KT 05/01 A2983 RMK A01 T00510006  RH  072%=      5-min Rain = 0
KBY1 190023Z 01025G30KT 05/01 A2983 RMK A01 T00500005  RH  073%=      5-min Rain = 0
KBY1 190024Z 00021KT 05/01 A2983 RMK A01 T00500005  RH  073%=      5-min Rain = 0
KBY1 190025Z 36023G30KT 05/01 A2983 RMK A01 T00490006  RH  073%=      5-min Rain = 0
KBY1 190026Z 36023G30KT 05/01 A2984 RMK A01 T00480006  RH  074%=      5-min Rain = 0
KBY1 190027Z 36023G28KT 05/01 A2984 RMK A01 T00470005  RH  074%=      5-min Rain = 0
KBY1 190028Z 00020G25KT 05/01 A2984 RMK A01 T00470006  RH  075%=      5-min Rain = 0
KBY1 190029Z 36016KT 05/01 A2984 RMK A01 T00470006  RH  075%=      5-min Rain = 0
KBY1 190030Z 00018G23KT 05/01 A2984 RMK A01 T00470007  RH  075%=      5-min Rain = 0
KBY1 190031Z 00012G17KT 05/01 A2984 RMK A01 T00460006  RH  075%=      5-min Rain = 0
KBY1 190032Z 00016G23KT 05/01 A2985 RMK A01 T00460007  RH  076%=      5-min Rain = 0
KBY1 190033Z 00016KT 05/01 A2985 RMK A01 T00460007  RH  076%=      5-min Rain = 0
KBY1 190034Z 01018KT 05/01 A2985 RMK A01 T00460007  RH  076%=      5-min Rain = 0
KBY1 190035Z 00018KT 05/01 A2985 RMK A01 T00450007  RH  076%=      5-min Rain = 0
KBY1 190036Z 00016G22KT 05/01 A2985 RMK A01 T00450007  RH  076%=      5-min Rain = 0
KBY1 190037Z 01019KT 04/01 A2985 RMK A01 T00440007  RH  076%=      5-min Rain = 0
KBY1 190038Z 00019G24KT 04/01 A2985 RMK A01 T00440006  RH  076%=      5-min Rain = 0
KBY1 190039Z 01016G21KT 04/01 A2985 RMK A01 T00430006  RH  077%=      5-min Rain = 0
KBY1 190040Z 01018KT 04/01 A2985 RMK A01 T00430007  RH  077%=      5-min Rain = 0
KBY1 190041Z 00018KT 04/01 A2986 RMK A01 T00430007  RH  077%=      5-min Rain = 0
KBY1 190042Z 01015KT 04/01 A2986 RMK A01 T00420007  RH  078%=      5-min Rain = 0
KBY1 190043Z 35012KT 04/01 A2986 RMK A01 T00430007  RH  078%=      5-min Rain = 0
KBY1 190044Z 00015KT 04/01 A2986 RMK A01 T00430008  RH  078%=      5-min Rain = 0
KBY1 190045Z 00012G19KT 04/01 A2986 RMK A01 T00430007  RH  078%=      5-min Rain = 0
KBY1 190046Z 36016G23KT 04/01 A2986 RMK A01 T00430007  RH  078%=      5-min Rain = 0
KBY1 190047Z 00019KT 04/01 A2987 RMK A01 T00430007  RH  077%=      5-min Rain = 0
KBY1 190048Z 00020KT 04/01 A2987 RMK A01 T00420006  RH  077%=      5-min Rain = 0
KBY1 190049Z 00016KT 04/01 A2987 RMK A01 T00420006  RH  077%=      5-min Rain = 0
KBY1 190050Z 00013KT 04/01 A2987 RMK A01 T00420006  RH  078%=      5-min Rain = 0
KBY1 190051Z 00012KT 04/01 A2987 RMK A01 T00420007  RH  078%=      5-min Rain = 0
KBY1 190052Z 01014KT 04/01 A2987 RMK A01 T00410007  RH  078%=      5-min Rain = 0
KBY1 190053Z 35009G16KT 04/01 A2988 RMK A01 T00410007  RH  078%=      5-min Rain = 0
KBY1 190054Z 01016KT 04/01 A2988 RMK A01 T00410007  RH  078%=      5-min Rain = 0
KBY1 190055Z 01016G21KT 04/01 A2988 RMK A01 T00410007  RH  078%=      5-min Rain = 0
KBY1 190056Z 01020G25KT 04/01 A2988 RMK A01 T00400006  RH  078%=      5-min Rain = 0
KBY1 190057Z 01018KT 04/01 A2988 RMK A01 T00390005  RH  078%=      5-min Rain = 0
KBY1 190058Z 01021G28KT 04/01 A2988 RMK A01 T00380005  RH  079%=      5-min Rain = 0
KBY1 190059Z 36020G25KT 04/01 A2988 RMK A01 T00380005  RH  079%=      5-min Rain = 0
KBY1 190100Z 36017KT 04/00 A2989 RMK A01 T00370004  RH  079%=      5-min Rain = 0
KBY1 190101Z 01016G23KT 04/01 A2989 RMK A01 T00370005  RH  079%=      5-min Rain = 0
KBY1 190102Z 01018KT 04/01 A2989 RMK A01 T00370005  RH  080%=      5-min Rain = 0
KBY1 190103Z 00016G21KT 04/01 A2989 RMK A01 T00370005  RH  080%=      5-min Rain = 0
KBY1 190104Z 00013G18KT 04/01 A2989 RMK A01 T00360005  RH  080%=      5-min Rain = 0
KBY1 190105Z 35018KT 04/01 A2989 RMK A01 T00360005  RH  080%=      5-min Rain = 0
KBY1 190106Z 00013KT 04/01 A299 RMK A01 T00360005  RH  080%=      5-min Rain = 0
KBY1 190107Z 00013G18KT 04/01 A299 RMK A01 T00360006  RH  081%=      5-min Rain = 0
KBY1 190108Z 01012KT 04/01 A299 RMK A01 T00350006  RH  081%=      5-min Rain = 0
KBY1 190109Z 00014G21KT 04/01 A299 RMK A01 T00350006  RH  081%=      5-min Rain = 0
KBY1 190110Z 02017KT 03/01 A2991 RMK A01 T00340005  RH  081%=      5-min Rain = 0
KBY1 190111Z 01024KT 03/00 A2991 RMK A01 T00330002  RH  080%=      5-min Rain = 0
KBY1 190112Z 01019G27KT 03/00 A2991 RMK A01 T00310000  RH  080%=      5-min Rain = 0
KBY1 190113Z 02018G26KT 03/00 A2991 RMK A01 T00300001  RH  081%=      5-min Rain = 0
KBY1 190114Z 01017G22KT 03/00 A2991 RMK A01 T00300001  RH  082%=      5-min Rain = 0
KBY1 190115Z 00019KT 03/00 A2991 RMK A01 T00290001  RH  082%=      5-min Rain = 0
KBY1 190116Z 01019KT 03/00 A2992 RMK A01 T00280000  RH  082%=      5-min Rain = 0
KBY1 190117Z 00019KT 03/00 A2992 RMK A01 T00280000  RH  082%=      5-min Rain = 0
KBY1 190118Z 01018G26KT 03/00 A2992 RMK A01 T002700-0  RH  082%=      5-min Rain = 0
KBY1 190119Z 02011KT 03/00 A2992 RMK A01 T00270000  RH  083%=      5-min Rain = 0
KBY1 190120Z 01011KT 03/00 A2992 RMK A01 T00270001  RH  083%=      5-min Rain = 0
KBY1 190121Z 01014KT 03/00 A2992 RMK A01 T00270001  RH  083%=      5-min Rain = 0
KBY1 190122Z 01019KT 03/00 A2992 RMK A01 T00260001  RH  083%=      5-min Rain = 0
KBY1 190123Z 01018KT 03/00 A2992 RMK A01 T00260000  RH  083%=      5-min Rain = 0
KBY1 190124Z 02016KT 03/M00 A2993 RMK A01 T00261001  RH  083%=      5-min Rain = 0
KBY1 190125Z 02014G19KT 03/M00 A2993 RMK A01 T00261001  RH  083%=      5-min Rain = 0
KBY1 190126Z 01012KT 03/00 A2993 RMK A01 T002600-0  RH  083%=      5-min Rain = 0
KBY1 190127Z 01016G23KT 03/00 A2993 RMK A01 T002600-0  RH  083%=      5-min Rain = 0
KBY1 190128Z 01017G23KT 03/M00 A2993 RMK A01 T00261001  RH  083%=      5-min Rain = 0
KBY1 190129Z 01019G25KT 03/M00 A2993 RMK A01 T00261002  RH  082%=      5-min Rain = 0
KBY1 190130Z 01018G23KT 03/M00 A2993 RMK A01 T00261003  RH  082%=      5-min Rain = 0
KBY1 190131Z 01018KT 03/M00 A2994 RMK A01 T00261004  RH  081%=      5-min Rain = 0
KBY1 190132Z 01016G22KT 03/M00 A2994 RMK A01 T00261004  RH  081%=      5-min Rain = 0
KBY1 190133Z 02016G21KT 03/M00 A2994 RMK A01 T00261004  RH  080%=      5-min Rain = 0
KBY1 190134Z 01010KT 03/M00 A2994 RMK A01 T00261004  RH  081%=      5-min Rain = 0
KBY1 190135Z 01018G25KT 03/M00 A2994 RMK A01 T00271004  RH  081%=      5-min Rain = 0
KBY1 190136Z 00018KT 03/M00 A2994 RMK A01 T00271004  RH  080%=      5-min Rain = 0
KBY1 190137Z 01016KT 03/M00 A2994 RMK A01 T00271004  RH  080%=      5-min Rain = 0
KBY1 190138Z 01014KT 03/M00 A2994 RMK A01 T00261004  RH  080%=      5-min Rain = 0
KBY1 190139Z 01014KT 03/M00 A2995 RMK A01 T00261004  RH  081%=      5-min Rain = 0
KBY1 190140Z 01016G21KT 03/M00 A2995 RMK A01 T00261004  RH  081%=      5-min Rain = 0
KBY1 190141Z 03014KT 03/M00 A2995 RMK A01 T00261003  RH  081%=      5-min Rain = 0
KBY1 190142Z 03015G20KT 03/M00 A2995 RMK A01 T00261004  RH  081%=      5-min Rain = 0
KBY1 190143Z 01012KT 03/M00 A2995 RMK A01 T00251004  RH  081%=      5-min Rain = 0
KBY1 190144Z 01011KT 03/M00 A2995 RMK A01 T00251004  RH  081%=      5-min Rain = 0
KBY1 190145Z 00013G20KT 03/M00 A2995 RMK A01 T00251004  RH  081%=      5-min Rain = 0
KBY1 190146Z 01021G28KT 03/M01 A2996 RMK A01 T00251006  RH  080%=      5-min Rain = 0
KBY1 190147Z 36017G23KT 03/M01 A2996 RMK A01 T00251007  RH  079%=      5-min Rain = 0
KBY1 190148Z 01017G22KT 03/M01 A2996 RMK A01 T00251009  RH  078%=      5-min Rain = 0
KBY1 190149Z 01013KT 03/M01 A2996 RMK A01 T00251009  RH  078%=      5-min Rain = 0
KBY1 190150Z 01014KT 03/M01 A2996 RMK A01 T00251009  RH  078%=      5-min Rain = 0
KBY1 190151Z 36017G22KT 03/M01 A2996 RMK A01 T00251010  RH  078%=      5-min Rain = 0
KBY1 190152Z 01016G23KT 02/M01 A2996 RMK A01 T00241011  RH  078%=      5-min Rain = 0
KBY1 190153Z 01021G30KT 02/M01 A2996 RMK A01 T00241011  RH  077%=      5-min Rain = 0
KBY1 190154Z 00020G25KT 02/M01 A2996 RMK A01 T00241012  RH  077%=      5-min Rain = 0
KBY1 190155Z 01021KT 02/M01 A2996 RMK A01 T00231012  RH  077%=      5-min Rain = 0
KBY1 190156Z 00016KT 02/M01 A2996 RMK A01 T00231012  RH  078%=      5-min Rain = 0
KBY1 190157Z 01012G17KT 02/M01 A2996 RMK A01 T00231011  RH  078%=      5-min Rain = 0
KBY1 190158Z 01010G16KT 02/M01 A2996 RMK A01 T00231011  RH  079%=      5-min Rain = 0
KBY1 190159Z 00015KT 02/M01 A2997 RMK A01 T00231011  RH  079%=      5-min Rain = 0
KBY1 190200Z 36015KT 02/M01 A2997 RMK A01 T00221011  RH  078%=      5-min Rain = 0
KBY1 190201Z 00010KT 02/M01 A2997 RMK A01 T00221011  RH  079%=      5-min Rain = 0
KBY1 190202Z 01012G17KT 02/M01 A2997 RMK A01 T00231010  RH  079%=      5-min Rain = 0
KBY1 190203Z 01011G18KT 02/M01 A2997 RMK A01 T00221010  RH  079%=      5-min Rain = 0
KBY1 190204Z 35013G22KT 02/M01 A2997 RMK A01 T00221010  RH  079%=      5-min Rain = 0
KBY1 190205Z 00014G19KT 02/M01 A2997 RMK A01 T00221011  RH  079%=      5-min Rain = 0
KBY1 190206Z 36015G23KT 02/M01 A2997 RMK A01 T00221011  RH  079%=      5-min Rain = 0
KBY1 190207Z 00017G25KT 02/M01 A2997 RMK A01 T00221011  RH  079%=      5-min Rain = 0
KBY1 190208Z 00018G24KT 02/M01 A2997 RMK A01 T00211011  RH  079%=      5-min Rain = 0
KBY1 190209Z 00013KT 02/M01 A2997 RMK A01 T00211010  RH  080%=      5-min Rain = 0
KBY1 190210Z 36016KT 02/M01 A2997 RMK A01 T00201009  RH  081%=      5-min Rain = 0
KBY1 190211Z 01015KT 02/M01 A2997 RMK A01 T00201009  RH  082%=      5-min Rain = 0
KBY1 190212Z 36011G16KT 02/M01 A2997 RMK A01 T00191008  RH  082%=      5-min Rain = 0
KBY1 190213Z 01014G22KT 02/M01 A2998 RMK A01 T00191008  RH  083%=      5-min Rain = 0
KBY1 190214Z 36009KT 02/M01 A2998 RMK A01 T00191007  RH  083%=      5-min Rain = 0
KBY1 190215Z 01010G17KT 02/M01 A2998 RMK A01 T00181006  RH  084%=      5-min Rain = 0
KBY1 190216Z 01012KT 02/M01 A2998 RMK A01 T00181006  RH  084%=      5-min Rain = 0
KBY1 190217Z 00008KT 02/M01 A2998 RMK A01 T00171006  RH  085%=      5-min Rain = 0
KBY1 190218Z 36014G25KT 02/M01 A2998 RMK A01 T00171005  RH  086%=      5-min Rain = 0
KBY1 190219Z 00021G28KT 02/M01 A2998 RMK A01 T00161005  RH  086%=      5-min Rain = 0
KBY1 190220Z 01015KT 02/M01 A2998 RMK A01 T00161006  RH  086%=      5-min Rain = 0
KBY1 190221Z 36016KT 02/M01 A2998 RMK A01 T00151005  RH  087%=      5-min Rain = 0
KBY1 190222Z 00014KT 02/M00 A2998 RMK A01 T00151004  RH  087%=      5-min Rain = 0
KBY1 190223Z 36013G18KT 01/M00 A2998 RMK A01 T00141004  RH  088%=      5-min Rain = 0
KBY1 190224Z 00014KT 01/M00 A2998 RMK A01 T00141003  RH  089%=      5-min Rain = 0
KBY1 190225Z 00010KT 01/M00 A2998 RMK A01 T00131003  RH  089%=      5-min Rain = 0
KBY1 190226Z 00009KT 01/M00 A2998 RMK A01 T00131003  RH  090%=      5-min Rain = 0
KBY1 190227Z 01007KT 01/M00 A2998 RMK A01 T00121002  RH  090%=      5-min Rain = 0
KBY1 190228Z 01008KT 01/M00 A2998 RMK A01 T00121002  RH  091%=      5-min Rain = 0
KBY1 190229Z 01009KT 01/M00 A2998 RMK A01 T00111002  RH  091%=      5-min Rain = 0
KBY1 190230Z 00008KT 01/M00 A2998 RMK A01 T00121001  RH  091%=      5-min Rain = 0
KBY1 190231Z 00013KT 01/M00 A2998 RMK A01 T00111001  RH  091%=      5-min Rain = 0
KBY1 190232Z 00007KT 01/M00 A2999 RMK A01 T00111001  RH  091%=      5-min Rain = 0
KBY1 190233Z 36008G14KT 01/M00 A2999 RMK A01 T00111001  RH  092%=      5-min Rain = 0
KBY1 190234Z 35013KT 01/M00 A2999 RMK A01 T00111001  RH  092%=      5-min Rain = 0
KBY1 190235Z 01009G14KT 01/M00 A2999 RMK A01 T00111001  RH  092%=      5-min Rain = 0
KBY1 190236Z 00009KT 01/M00 A2999 RMK A01 T00111001  RH  092%=      5-min Rain = 0
KBY1 190237Z 00012KT 01/M00 A2999 RMK A01 T00111001  RH  092%=      5-min Rain = 0
KBY1 190238Z 01012G18KT 01/M00 A2999 RMK A01 T00111001  RH  092%=      5-min Rain = 0
KBY1 190239Z 01011KT 01/M00 A2999 RMK A01 T00111001  RH  092%=      5-min Rain = 0
KBY1 190240Z 01013KT 01/M00 A2999 RMK A01 T00111001  RH  092%=      5-min Rain = 0
KBY1 190241Z 01013KT 01/M00 A2999 RMK A01 T00111001  RH  092%=      5-min Rain = 0
KBY1 190242Z 35012KT 01/M00 A2999 RMK A01 T00111002  RH  091%=      5-min Rain = 0
KBY1 190243Z 00010G17KT 01/M00 A2999 RMK A01 T00111002  RH  091%=      5-min Rain = 0
KBY1 190244Z 01014KT 01/M00 A30 RMK A01 T00111001  RH  092%=      5-min Rain = 0
KBY1 190245Z 01014KT 01/M00 A2999 RMK A01 T00121001  RH  091%=      5-min Rain = 0
KBY1 190246Z 00012G17KT 01/M00 A30 RMK A01 T00121001  RH  091%=      5-min Rain = 0
KBY1 190247Z 01010KT 01/M00 A30 RMK A01 T00121001  RH  091%=      5-min Rain = 0
KBY1 190248Z 36009KT 01/00 A30 RMK A01 T001200-0  RH  091%=      5-min Rain = 0
KBY1 190249Z 00009G15KT 01/00 A30 RMK A01 T00120000  RH  092%=      5-min Rain = 0
KBY1 190250Z 00009KT 01/00 A30 RMK A01 T00120000  RH  092%=      5-min Rain = 0
KBY1 190251Z 36012G17KT 01/00 A30 RMK A01 T00120001  RH  092%=      5-min Rain = 0
KBY1 190252Z 01013KT 01/00 A30 RMK A01 T00120000  RH  092%=      5-min Rain = 0
KBY1 190253Z 36014G19KT 01/00 A30 RMK A01 T001300-0  RH  091%=      5-min Rain = 0
KBY1 190254Z 00013G18KT 01/M00 A30 RMK A01 T00131001  RH  091%=      5-min Rain = 0
KBY1 190255Z 00016G21KT 01/M00 A3001 RMK A01 T00131001  RH  091%=      5-min Rain = 0
KBY1 190256Z 00015G20KT 01/M00 A3001 RMK A01 T00131001  RH  090%=      5-min Rain = 0
KBY1 190257Z 00016KT 01/M00 A3001 RMK A01 T00131001  RH  090%=      5-min Rain = 0.01
KBY1 190258Z 00012G17KT 01/M00 A3001 RMK A01 T00131002  RH  090%=      5-min Rain = 0
KBY1 190259Z 00013G18KT 01/M00 A3001 RMK A01 T00131001  RH  090%=      5-min Rain = 0
KBY1 190300Z 00016KT 01/M00 A3001 RMK A01 T00141001  RH  090%=      5-min Rain = 0
KBY1 190301Z 36016KT 01/M00 A3001 RMK A01 T00141001  RH  090%=      5-min Rain = 0
KBY1 190302Z 35011KT 01/M00 A3001 RMK A01 T00141001  RH  090%=      5-min Rain = 0
KBY1 190303Z 36010KT 01/00 A3001 RMK A01 T001400-0  RH  090%=      5-min Rain = 0
KBY1 190304Z 36013G18KT 01/00 A3002 RMK A01 T001400-0  RH  090%=      5-min Rain = 0
KBY1 190305Z 00012KT 01/M00 A3002 RMK A01 T00141001  RH  090%=      5-min Rain = 0
KBY1 190306Z 01018G28KT 01/M00 A3002 RMK A01 T00131001  RH  090%=      5-min Rain = 0
KBY1 190307Z 36018G24KT 01/M00 A3002 RMK A01 T00141002  RH  089%=      5-min Rain = 0
KBY1 190308Z 36021G26KT 01/M00 A3002 RMK A01 T00131003  RH  089%=      5-min Rain = 0
KBY1 190309Z 00014G22KT 01/M00 A3002 RMK A01 T00131004  RH  088%=      5-min Rain = 0
KBY1 190310Z 00020KT 01/M00 A3002 RMK A01 T00131004  RH  089%=      5-min Rain = 0
KBY1 190311Z 36018G24KT 01/M01 A3002 RMK A01 T00121005  RH  088%=      5-min Rain = 0
KBY1 190312Z 00016G22KT 01/M01 A3002 RMK A01 T00121006  RH  088%=      5-min Rain = 0
KBY1 190313Z 00019G26KT 01/M01 A3002 RMK A01 T00121006  RH  088%=      5-min Rain = 0
KBY1 190314Z 01018G25KT 01/M01 A3002 RMK A01 T00121007  RH  087%=      5-min Rain = 0
KBY1 190315Z 36016G22KT 01/M01 A3002 RMK A01 T00121007  RH  087%=      5-min Rain = 0
KBY1 190316Z 36018G25KT 01/M01 A3002 RMK A01 T00121007  RH  087%=      5-min Rain = 0
KBY1 190317Z 00017KT 01/M01 A3003 RMK A01 T00121007  RH  087%=      5-min Rain = 0
KBY1 190318Z 00019G25KT 01/M01 A3003 RMK A01 T00121007  RH  087%=      5-min Rain = 0
KBY1 190319Z 35016KT 01/M01 A3003 RMK A01 T00121007  RH  087%=      5-min Rain = 0
KBY1 190320Z 00018KT 01/M01 A3003 RMK A01 T00111007  RH  087%=      5-min Rain = 0
KBY1 190321Z 00015G20KT 01/M01 A3003 RMK A01 T00111007  RH  088%=      5-min Rain = 0
KBY1 190322Z 00016KT 01/M01 A3003 RMK A01 T00111007  RH  088%=      5-min Rain = 0
KBY1 190323Z 01015G21KT 01/M01 A3003 RMK A01 T00111007  RH  088%=      5-min Rain = 0
KBY1 190324Z 01012KT 01/M01 A3003 RMK A01 T00111007  RH  088%=      5-min Rain = 0
KBY1 190325Z 00012KT 01/M01 A3003 RMK A01 T00111007  RH  088%=      5-min Rain = 0
KBY1 190326Z 00013G19KT 01/M01 A3003 RMK A01 T00111006  RH  089%=      5-min Rain = 0
KBY1 190327Z 01021KT 01/M01 A3003 RMK A01 T00111007  RH  088%=      5-min Rain = 0
KBY1 190328Z 00020G28KT 01/M01 A3003 RMK A01 T00101008  RH  087%=      5-min Rain = 0
KBY1 190329Z 00021KT 01/M01 A3003 RMK A01 T00111009  RH  087%=      5-min Rain = 0
KBY1 190330Z 00020G26KT 01/M01 A3004 RMK A01 T00101009  RH  087%=      5-min Rain = 0
KBY1 190331Z 36016G21KT 01/M01 A3004 RMK A01 T00101009  RH  087%=      5-min Rain = 0
KBY1 190332Z 01018G26KT 01/M01 A3004 RMK A01 T00101008  RH  087%=      5-min Rain = 0
KBY1 190333Z 36017G25KT 01/M01 A3004 RMK A01 T00101009  RH  087%=      5-min Rain = 0
KBY1 190334Z 00019G25KT 01/M01 A3004 RMK A01 T00101009  RH  087%=      5-min Rain = 0
KBY1 190335Z 00020G27KT 01/M01 A3004 RMK A01 T00101010  RH  087%=      5-min Rain = 0
KBY1 190336Z 00021G27KT 01/M01 A3004 RMK A01 T00091011  RH  087%=      5-min Rain = 0
KBY1 190337Z 36022G29KT 01/M01 A3004 RMK A01 T00101010  RH  087%=      5-min Rain = 0
KBY1 190338Z 36021G28KT 01/M01 A3004 RMK A01 T00091011  RH  087%=      5-min Rain = 0
KBY1 190339Z 35016G21KT 01/M01 A3004 RMK A01 T00091011  RH  087%=      5-min Rain = 0
KBY1 190340Z 00018G24KT 01/M01 A3004 RMK A01 T00091010  RH  087%=      5-min Rain = 0
KBY1 190341Z 00015G21KT 01/M01 A3004 RMK A01 T00091010  RH  087%=      5-min Rain = 0
KBY1 190342Z 00019G27KT 01/M01 A3004 RMK A01 T00081010  RH  088%=      5-min Rain = 0
KBY1 190343Z 00017G23KT 01/M01 A3005 RMK A01 T00081010  RH  088%=      5-min Rain = 0
KBY1 190344Z 36016KT 01/M01 A3005 RMK A01 T00081010  RH  088%=      5-min Rain = 0
KBY1 190345Z 00016G21KT 01/M01 A3005 RMK A01 T00081009  RH  088%=      5-min Rain = 0
KBY1 190346Z 00015G20KT 01/M01 A3005 RMK A01 T00081010  RH  088%=      5-min Rain = 0
KBY1 190347Z 36013KT 01/M01 A3005 RMK A01 T00081010  RH  088%=      5-min Rain = 0
KBY1 190348Z 36013G18KT 01/M01 A3005 RMK A01 T00071009  RH  089%=      5-min Rain = 0
KBY1 190349Z 00015G26KT 01/M01 A3005 RMK A01 T00071010  RH  089%=      5-min Rain = 0
KBY1 190350Z 00019KT 01/M01 A3005 RMK A01 T00071011  RH  088%=      5-min Rain = 0
KBY1 190351Z 00016KT 01/M01 A3005 RMK A01 T00071012  RH  087%=      5-min Rain = 0
KBY1 190352Z 00017G22KT 01/M01 A3005 RMK A01 T00071013  RH  087%=      5-min Rain = 0
KBY1 190353Z 00014G20KT 01/M01 A3005 RMK A01 T00071013  RH  087%=      5-min Rain = 0
KBY1 190354Z 00012G17KT 01/M01 A3005 RMK A01 T00071012  RH  087%=      5-min Rain = 0
KBY1 190355Z 00011G16KT 01/M01 A3005 RMK A01 T00071011  RH  087%=      5-min Rain = 0
KBY1 190356Z 00013KT 01/M01 A3005 RMK A01 T00071011  RH  088%=      5-min Rain = 0
KBY1 190357Z 00013KT 01/M01 A3005 RMK A01 T00071011  RH  088%=      5-min Rain = 0
KBY1 190358Z 00011KT 01/M01 A3005 RMK A01 T00071011  RH  088%=      5-min Rain = 0
KBY1 190359Z 36008G15KT 01/M01 A3005 RMK A01 T00071010  RH  088%=      5-min Rain = 0
KBY1 190400Z 36010KT 01/M01 A3005 RMK A01 T00071010  RH  088%=      5-min Rain = 0
KBY1 190401Z 00011KT 01/M01 A3006 RMK A01 T00071011  RH  088%=      5-min Rain = 0
KBY1 190402Z 00011KT 01/M01 A3006 RMK A01 T00071011  RH  088%=      5-min Rain = 0
KBY1 190403Z 35008KT 01/M01 A3006 RMK A01 T00071012  RH  087%=      5-min Rain = 0
KBY1 190404Z 01010KT 01/M01 A3006 RMK A01 T00071011  RH  087%=      5-min Rain = 0
KBY1 190405Z 01009KT 01/M01 A3006 RMK A01 T00081011  RH  088%=      5-min Rain = 0
KBY1 190406Z 01010KT 01/M01 A3006 RMK A01 T00071012  RH  087%=      5-min Rain = 0
KBY1 190407Z 01010KT 01/M01 A3006 RMK A01 T00071012  RH  087%=      5-min Rain = 0
KBY1 190408Z 00011KT 01/M01 A3006 RMK A01 T00071013  RH  086%=      5-min Rain = 0
KBY1 190409Z 01011KT 01/M01 A3006 RMK A01 T00071014  RH  086%=      5-min Rain = 0
KBY1 190410Z 01009G14KT 01/M02 A3006 RMK A01 T00081015  RH  085%=      5-min Rain = 0
KBY1 190411Z 01010KT 01/M02 A3006 RMK A01 T00081015  RH  085%=      5-min Rain = 0
KBY1 190412Z 01011G19KT 01/M02 A3006 RMK A01 T00081015  RH  085%=      5-min Rain = 0
KBY1 190413Z 02013KT 01/M02 A3006 RMK A01 T00081016  RH  084%=      5-min Rain = 0
KBY1 190414Z 01011KT 01/M02 A3006 RMK A01 T00071018  RH  084%=      5-min Rain = 0
KBY1 190415Z 00012G18KT 01/M02 A3006 RMK A01 T00071017  RH  084%=      5-min Rain = 0
KBY1 190416Z 01017KT 01/M02 A3006 RMK A01 T00071018  RH  083%=      5-min Rain = 0
KBY1 190417Z 01015KT 01/M02 A3006 RMK A01 T00071019  RH  083%=      5-min Rain = 0
KBY1 190418Z 00009G14KT 01/M02 A3007 RMK A01 T00071019  RH  082%=      5-min Rain = 0
KBY1 190419Z 00011KT 01/M02 A3007 RMK A01 T00071018  RH  083%=      5-min Rain = 0
KBY1 190420Z 36011KT 01/M02 A3007 RMK A01 T00071018  RH  083%=      5-min Rain = 0
KBY1 190421Z 00009KT 01/M02 A3007 RMK A01 T00071018  RH  084%=      5-min Rain = 0
KBY1 190422Z 36008KT 01/M02 A3007 RMK A01 T00071017  RH  084%=      5-min Rain = 0
KBY1 190423Z 00011KT 01/M02 A3007 RMK A01 T00071017  RH  084%=      5-min Rain = 0
KBY1 190424Z 36010KT 01/M02 A3007 RMK A01 T00061017  RH  084%=      5-min Rain = 0
KBY1 190425Z 35010KT 01/M02 A3007 RMK A01 T00061017  RH  084%=      5-min Rain = 0
KBY1 190426Z 34008KT 01/M02 A3007 RMK A01 T00071017  RH  084%=      5-min Rain = 0
KBY1 190427Z 36009KT 01/M02 A3007 RMK A01 T00061017  RH  085%=      5-min Rain = 0
KBY1 190428Z 35006KT 01/M02 A3007 RMK A01 T00071016  RH  085%=      5-min Rain = 0
KBY1 190429Z 00009KT 01/M02 A3007 RMK A01 T00061017  RH  084%=      5-min Rain = 0
KBY1 190430Z 36012G18KT 01/M02 A3007 RMK A01 T00061018  RH  084%=      5-min Rain = 0
KBY1 190431Z 00012KT 01/M02 A3008 RMK A01 T00071019  RH  083%=      5-min Rain = 0
KBY1 190432Z 01014G19KT 01/M02 A3008 RMK A01 T00071018  RH  083%=      5-min Rain = 0
KBY1 190433Z 36014KT 01/M02 A3008 RMK A01 T00071019  RH  083%=      5-min Rain = 0
KBY1 190434Z 36015G20KT 01/M02 A3008 RMK A01 T00071020  RH  082%=      5-min Rain = 0
KBY1 190435Z 36015G21KT 01/M02 A3008 RMK A01 T00071020  RH  082%=      5-min Rain = 0
KBY1 190436Z 36012KT 01/M02 A3008 RMK A01 T00071020  RH  082%=      5-min Rain = 0
KBY1 190437Z 00009KT 01/M02 A3008 RMK A01 T00071019  RH  082%=      5-min Rain = 0
KBY1 190438Z 35008KT 01/M02 A3008 RMK A01 T00071019  RH  083%=      5-min Rain = 0
KBY1 190439Z 00010KT 01/M02 A3008 RMK A01 T00071018  RH  083%=      5-min Rain = 0
KBY1 190440Z 00011KT 01/M02 A3008 RMK A01 T00061019  RH  083%=      5-min Rain = 0
KBY1 190441Z 00009G14KT 01/M02 A3008 RMK A01 T00061019  RH  083%=      5-min Rain = 0
KBY1 190442Z 36008KT 01/M02 A3008 RMK A01 T00071019  RH  083%=      5-min Rain = 0
KBY1 190443Z 35011G16KT 01/M02 A3008 RMK A01 T00061018  RH  084%=      5-min Rain = 0
KBY1 190444Z 35010G15KT 01/M02 A3008 RMK A01 T00061019  RH  083%=      5-min Rain = 0
KBY1 190445Z 35010G15KT 01/M02 A3008 RMK A01 T00061019  RH  083%=      5-min Rain = 0
KBY1 190446Z 36013KT 01/M02 A3008 RMK A01 T00061019  RH  083%=      5-min Rain = 0
KBY1 190447Z 35011KT 01/M02 A3008 RMK A01 T00071020  RH  083%=      5-min Rain = 0
KBY1 190448Z 01011KT 01/M02 A3009 RMK A01 T00071019  RH  083%=      5-min Rain = 0
KBY1 190449Z 00014KT 01/M02 A3009 RMK A01 T00071019  RH  083%=      5-min Rain = 0
KBY1 190450Z 36014KT 01/M02 A3009 RMK A01 T00071021  RH  082%=      5-min Rain = 0
KBY1 190451Z 35011G17KT 01/M02 A3009 RMK A01 T00071021  RH  081%=      5-min Rain = 0
KBY1 190452Z 36011KT 01/M02 A3009 RMK A01 T00071021  RH  082%=      5-min Rain = 0
KBY1 190453Z 00010KT 01/M02 A3009 RMK A01 T00071021  RH  082%=      5-min Rain = 0
KBY1 190454Z 00018KT 01/M02 A3009 RMK A01 T00071022  RH  081%=      5-min Rain = 0
KBY1 190455Z 35011G16KT 01/M02 A3009 RMK A01 T00071023  RH  081%=      5-min Rain = 0
KBY1 190456Z 36010G15KT 01/M02 A3009 RMK A01 T00071022  RH  081%=      5-min Rain = 0
KBY1 190457Z 35009KT 01/M02 A3009 RMK A01 T00071022  RH  081%=      5-min Rain = 0
KBY1 190458Z 35015G21KT 01/M02 A3009 RMK A01 T00061022  RH  081%=      5-min Rain = 0
KBY1 190459Z 36011KT 01/M02 A3009 RMK A01 T00061022  RH  081%=      5-min Rain = 0
KBY1 190500Z 36010KT 01/M02 A3009 RMK A01 T00061022  RH  081%=      5-min Rain = 0
KBY1 190501Z 35011KT 01/M02 A3009 RMK A01 T00061023  RH  081%=      5-min Rain = 0
KBY1 190502Z 35008KT 01/M02 A301 RMK A01 T00061023  RH  081%=      5-min Rain = 0
KBY1 190503Z 34010KT 01/M02 A301 RMK A01 T00061022  RH  082%=      5-min Rain = 0
KBY1 190504Z 34011KT 01/M02 A301 RMK A01 T00051023  RH  082%=      5-min Rain = 0
KBY1 190505Z 34016G21KT 01/M02 A301 RMK A01 T00051023  RH  081%=      5-min Rain = 0
KBY1 190506Z 35016KT 01/M02 A301 RMK A01 T00061024  RH  081%=      5-min Rain = 0
KBY1 190507Z 35010G15KT 01/M03 A301 RMK A01 T00061025  RH  080%=      5-min Rain = 0
KBY1 190508Z 34009G14KT 01/M02 A301 RMK A01 T00061024  RH  080%=      5-min Rain = 0
KBY1 190509Z 35015G20KT 01/M02 A301 RMK A01 T00051024  RH  081%=      5-min Rain = 0
KBY1 190510Z 35012G17KT 01/M03 A301 RMK A01 T00051025  RH  080%=      5-min Rain = 0
KBY1 190511Z 35009G14KT 01/M03 A3011 RMK A01 T00051025  RH  080%=      5-min Rain = 0
KBY1 190512Z 35013KT 01/M03 A3011 RMK A01 T00051025  RH  080%=      5-min Rain = 0
KBY1 190513Z 35009KT 01/M03 A3011 RMK A01 T00051025  RH  080%=      5-min Rain = 0
KBY1 190514Z 34010KT 01/M03 A3011 RMK A01 T00051025  RH  081%=      5-min Rain = 0
KBY1 190515Z 35011G20KT 00/M03 A3011 RMK A01 T00041025  RH  081%=      5-min Rain = 0
KBY1 190516Z 35017KT 00/M03 A3011 RMK A01 T00041026  RH  081%=      5-min Rain = 0
KBY1 190517Z 35010G15KT 00/M03 A3011 RMK A01 T00041026  RH  080%=      5-min Rain = 0
KBY1 190518Z 35013G18KT 00/M03 A3011 RMK A01 T00041026  RH  080%=      5-min Rain = 0
KBY1 190519Z 35010G15KT 00/M03 A3011 RMK A01 T00041026  RH  080%=      5-min Rain = 0
KBY1 190520Z 35009G15KT 00/M03 A3012 RMK A01 T00041026  RH  080%=      5-min Rain = 0
KBY1 190521Z 35013KT 00/M03 A3012 RMK A01 T00041025  RH  081%=      5-min Rain = 0
KBY1 190522Z 34013KT 00/M03 A3012 RMK A01 T00041026  RH  080%=      5-min Rain = 0
KBY1 190523Z 34010KT 00/M03 A3012 RMK A01 T00041026  RH  080%=      5-min Rain = 0
KBY1 190524Z 34008KT 00/M03 A3012 RMK A01 T00041026  RH  080%=      5-min Rain = 0
KBY1 190525Z 34009G14KT 00/M03 A3012 RMK A01 T00041025  RH  081%=      5-min Rain = 0
KBY1 190526Z 35010G15KT 00/M03 A3012 RMK A01 T00041025  RH  081%=      5-min Rain = 0
KBY1 190527Z 34008KT 00/M03 A3012 RMK A01 T00041026  RH  080%=      5-min Rain = 0
KBY1 190528Z 34011KT 00/M03 A3012 RMK A01 T00031026  RH  080%=      5-min Rain = 0
KBY1 190529Z 35014KT 00/M03 A3012 RMK A01 T00041027  RH  080%=      5-min Rain = 0
KBY1 190530Z 35013KT 00/M03 A3012 RMK A01 T00041027  RH  079%=      5-min Rain = 0
KBY1 190531Z 34010KT 00/M03 A3012 RMK A01 T00041028  RH  079%=      5-min Rain = 0
KBY1 190532Z 35011G17KT 00/M03 A3012 RMK A01 T00041028  RH  079%=      5-min Rain = 0
KBY1 190533Z 36014KT 00/M03 A3013 RMK A01 T00041028  RH  079%=      5-min Rain = 0
KBY1 190534Z 35009KT 00/M03 A3013 RMK A01 T00041028  RH  079%=      5-min Rain = 0
KBY1 190535Z 35010KT 00/M03 A3013 RMK A01 T00041028  RH  079%=      5-min Rain = 0
KBY1 190536Z 35011G16KT 00/M03 A3013 RMK A01 T00041028  RH  079%=      5-min Rain = 0
KBY1 190537Z 35012G17KT 00/M03 A3013 RMK A01 T00041029  RH  079%=      5-min Rain = 0
KBY1 190538Z 35011KT 00/M03 A3013 RMK A01 T00031029  RH  079%=      5-min Rain = 0
KBY1 190539Z 36011KT 00/M03 A3013 RMK A01 T00031028  RH  079%=      5-min Rain = 0
KBY1 190540Z 35012KT 00/M03 A3013 RMK A01 T00031028  RH  079%=      5-min Rain = 0
KBY1 190541Z 35010KT 00/M03 A3013 RMK A01 T00031029  RH  079%=      5-min Rain = 0
KBY1 190542Z 35013G18KT 00/M03 A3013 RMK A01 T00031029  RH  079%=      5-min Rain = 0
KBY1 190543Z 35012G17KT 00/M03 A3013 RMK A01 T00031029  RH  079%=      5-min Rain = 0
KBY1 190544Z 34010KT 00/M03 A3013 RMK A01 T00031029  RH  079%=      5-min Rain = 0
KBY1 190545Z 35012KT 00/M03 A3013 RMK A01 T00031029  RH  080%=      5-min Rain = 0
KBY1 190546Z 34009KT 00/M03 A3013 RMK A01 T00021030  RH  079%=      5-min Rain = 0
KBY1 190547Z 34012G17KT 00/M03 A3014 RMK A01 T00021030  RH  079%=      5-min Rain = 0
KBY1 190548Z 35011G16KT 00/M03 A3014 RMK A01 T00021030  RH  079%=      5-min Rain = 0
KBY1 190549Z 34011KT 00/M03 A3014 RMK A01 T00021030  RH  079%=      5-min Rain = 0
KBY1 190550Z 34010KT 00/M03 A3014 RMK A01 T00021030  RH  079%=      5-min Rain = 0
KBY1 190551Z 34013KT 00/M03 A3014 RMK A01 T00021029  RH  079%=      5-min Rain = 0
KBY1 190552Z 34012KT 00/M03 A3014 RMK A01 T00021030  RH  079%=      5-min Rain = 0
KBY1 190553Z 35008KT 00/M03 A3014 RMK A01 T00021030  RH  079%=      5-min Rain = 0
KBY1 190554Z 34008KT 00/M03 A3014 RMK A01 T00021029  RH  079%=      5-min Rain = 0
KBY1 190555Z 33007KT 00/M03 A3014 RMK A01 T00021030  RH  079%=      5-min Rain = 0
KBY1 190556Z 34009KT 00/M03 A3014 RMK A01 T00011030  RH  080%=      5-min Rain = 0
KBY1 190557Z 32008KT 00/M03 A3014 RMK A01 T00011030  RH  080%=      5-min Rain = 0
KBY1 190558Z 32008KT 00/M03 A3014 RMK A01 T00011030  RH  080%=      5-min Rain = 0
KBY1 190559Z 32010KT 00/M03 A3014 RMK A01 T00011030  RH  080%=      5-min Rain = 0

Page generated in 0.0769 seconds.